<?xml version="1.0" encoding="UTF-8" standalone="no" ?>
<gpx xmlns="http://www.topografix.com/GPX/1/1" xmlns:xsi="http://www.w3.org/2001/XMLSchema-instance" xsi:schemaLocation="http://www.topografix.com/GPX/1/1 http://www.topografix.com/GPX/1/1/gpx.xsd" version="1.1" creator="VisuGPX - https://www.visugpx.com">
  <metadata>
    <name>LE QUERMOZ</name>
    <desc><![CDATA[Sortie Ski de Montagne avec GEMSA]]></desc>
  </metadata>
  <trk>
    <name><![CDATA[Le Quermoz]]></name>
    <trkseg>
      <trkpt lat="45.53821" lon="6.5816">
        <ele>1161.4099121094</ele>
        <time>2011-01-15T07:55:58Z</time>
      </trkpt>
      <trkpt lat="45.5382" lon="6.58161">
        <ele>1170.5424804688</ele>
        <time>2011-01-15T07:58:48Z</time>
      </trkpt>
      <trkpt lat="45.53819" lon="6.58161">
        <ele>1169.5812988281</ele>
        <time>2011-01-15T07:59:49Z</time>
      </trkpt>
      <trkpt lat="45.53822" lon="6.58163">
        <ele>1173.9069824219</ele>
        <time>2011-01-15T08:00:02Z</time>
      </trkpt>
      <trkpt lat="45.53819" lon="6.5817">
        <ele>1196.4982910156</ele>
        <time>2011-01-15T08:00:32Z</time>
      </trkpt>
      <trkpt lat="45.53819" lon="6.58168">
        <ele>1189.2880859375</ele>
        <time>2011-01-15T08:00:46Z</time>
      </trkpt>
      <trkpt lat="45.53818" lon="6.58165">
        <ele>1182.5590820312</ele>
        <time>2011-01-15T08:01:02Z</time>
      </trkpt>
      <trkpt lat="45.53818" lon="6.58162">
        <ele>1178.2329101562</ele>
        <time>2011-01-15T08:01:16Z</time>
      </trkpt>
      <trkpt lat="45.53818" lon="6.58162">
        <ele>1172.9458007812</ele>
        <time>2011-01-15T08:01:39Z</time>
      </trkpt>
      <trkpt lat="45.53818" lon="6.5816">
        <ele>1172.4650878906</ele>
        <time>2011-01-15T08:01:54Z</time>
      </trkpt>
      <trkpt lat="45.53818" lon="6.58161">
        <ele>1172.9458007812</ele>
        <time>2011-01-15T08:02:08Z</time>
      </trkpt>
      <trkpt lat="45.53818" lon="6.58161">
        <ele>1172.9458007812</ele>
        <time>2011-01-15T08:02:24Z</time>
      </trkpt>
      <trkpt lat="45.53823" lon="6.58169">
        <ele>1173.4265136719</ele>
        <time>2011-01-15T08:02:35Z</time>
      </trkpt>
      <trkpt lat="45.53835" lon="6.58191">
        <ele>1175.8295898438</ele>
        <time>2011-01-15T08:02:53Z</time>
      </trkpt>
      <trkpt lat="45.5384" lon="6.58207">
        <ele>1178.2329101562</ele>
        <time>2011-01-15T08:03:10Z</time>
      </trkpt>
      <trkpt lat="45.53841" lon="6.58209">
        <ele>1178.2329101562</ele>
        <time>2011-01-15T08:03:27Z</time>
      </trkpt>
      <trkpt lat="45.53841" lon="6.58208">
        <ele>1177.2717285156</ele>
        <time>2011-01-15T08:03:42Z</time>
      </trkpt>
      <trkpt lat="45.53841" lon="6.58208">
        <ele>1175.8295898438</ele>
        <time>2011-01-15T08:04:16Z</time>
      </trkpt>
      <trkpt lat="45.53842" lon="6.58215">
        <ele>1175.3488769531</ele>
        <time>2011-01-15T08:04:54Z</time>
      </trkpt>
      <trkpt lat="45.53846" lon="6.58225">
        <ele>1175.3488769531</ele>
        <time>2011-01-15T08:05:04Z</time>
      </trkpt>
      <trkpt lat="45.53849" lon="6.58228">
        <ele>1176.3103027344</ele>
        <time>2011-01-15T08:05:08Z</time>
      </trkpt>
      <trkpt lat="45.53853" lon="6.58234">
        <ele>1176.791015625</ele>
        <time>2011-01-15T08:05:13Z</time>
      </trkpt>
      <trkpt lat="45.53869" lon="6.58254">
        <ele>1174.8684082031</ele>
        <time>2011-01-15T08:05:33Z</time>
      </trkpt>
      <trkpt lat="45.53887" lon="6.58274">
        <ele>1176.3103027344</ele>
        <time>2011-01-15T08:05:54Z</time>
      </trkpt>
      <trkpt lat="45.53901" lon="6.5829">
        <ele>1176.791015625</ele>
        <time>2011-01-15T08:06:11Z</time>
      </trkpt>
      <trkpt lat="45.53913" lon="6.58304">
        <ele>1177.7521972656</ele>
        <time>2011-01-15T08:06:30Z</time>
      </trkpt>
      <trkpt lat="45.53921" lon="6.58313">
        <ele>1178.2329101562</ele>
        <time>2011-01-15T08:06:44Z</time>
      </trkpt>
      <trkpt lat="45.53937" lon="6.58339">
        <ele>1178.7136230469</ele>
        <time>2011-01-15T08:07:08Z</time>
      </trkpt>
      <trkpt lat="45.53951" lon="6.58361">
        <ele>1181.1171875</ele>
        <time>2011-01-15T08:07:28Z</time>
      </trkpt>
      <trkpt lat="45.53953" lon="6.58365">
        <ele>1181.1171875</ele>
        <time>2011-01-15T08:07:32Z</time>
      </trkpt>
      <trkpt lat="45.53964" lon="6.58384">
        <ele>1182.0783691406</ele>
        <time>2011-01-15T08:07:49Z</time>
      </trkpt>
      <trkpt lat="45.53978" lon="6.58408">
        <ele>1186.404296875</ele>
        <time>2011-01-15T08:08:08Z</time>
      </trkpt>
      <trkpt lat="45.53989" lon="6.58423">
        <ele>1186.884765625</ele>
        <time>2011-01-15T08:08:22Z</time>
      </trkpt>
      <trkpt lat="45.54" lon="6.5841">
        <ele>1191.69140625</ele>
        <time>2011-01-15T08:08:35Z</time>
      </trkpt>
      <trkpt lat="45.53997" lon="6.58402">
        <ele>1191.69140625</ele>
        <time>2011-01-15T08:08:41Z</time>
      </trkpt>
      <trkpt lat="45.53982" lon="6.58385">
        <ele>1192.1721191406</ele>
        <time>2011-01-15T08:08:59Z</time>
      </trkpt>
      <trkpt lat="45.5397" lon="6.58365">
        <ele>1196.017578125</ele>
        <time>2011-01-15T08:09:23Z</time>
      </trkpt>
      <trkpt lat="45.53961" lon="6.58349">
        <ele>1199.3820800781</ele>
        <time>2011-01-15T08:09:40Z</time>
      </trkpt>
      <trkpt lat="45.5395" lon="6.58322">
        <ele>1200.3435058594</ele>
        <time>2011-01-15T08:10:02Z</time>
      </trkpt>
      <trkpt lat="45.53939" lon="6.583">
        <ele>1202.2658691406</ele>
        <time>2011-01-15T08:10:21Z</time>
      </trkpt>
      <trkpt lat="45.53931" lon="6.58273">
        <ele>1203.7080078125</ele>
        <time>2011-01-15T08:10:42Z</time>
      </trkpt>
      <trkpt lat="45.53924" lon="6.58241">
        <ele>1204.6691894531</ele>
        <time>2011-01-15T08:11:06Z</time>
      </trkpt>
      <trkpt lat="45.53921" lon="6.58209">
        <ele>1206.591796875</ele>
        <time>2011-01-15T08:11:28Z</time>
      </trkpt>
      <trkpt lat="45.53916" lon="6.58177">
        <ele>1208.0339355469</ele>
        <time>2011-01-15T08:11:49Z</time>
      </trkpt>
      <trkpt lat="45.53917" lon="6.58155">
        <ele>1209.9562988281</ele>
        <time>2011-01-15T08:12:08Z</time>
      </trkpt>
      <trkpt lat="45.53919" lon="6.58129">
        <ele>1210.9177246094</ele>
        <time>2011-01-15T08:12:28Z</time>
      </trkpt>
      <trkpt lat="45.53915" lon="6.58101">
        <ele>1213.8017578125</ele>
        <time>2011-01-15T08:12:48Z</time>
      </trkpt>
      <trkpt lat="45.53913" lon="6.58084">
        <ele>1216.205078125</ele>
        <time>2011-01-15T08:13:05Z</time>
      </trkpt>
      <trkpt lat="45.53913" lon="6.58084">
        <ele>1215.724609375</ele>
        <time>2011-01-15T08:13:16Z</time>
      </trkpt>
      <trkpt lat="45.53909" lon="6.58077">
        <ele>1214.7631835938</ele>
        <time>2011-01-15T08:13:22Z</time>
      </trkpt>
      <trkpt lat="45.53894" lon="6.58055">
        <ele>1216.205078125</ele>
        <time>2011-01-15T08:13:42Z</time>
      </trkpt>
      <trkpt lat="45.5388" lon="6.58038">
        <ele>1218.1276855469</ele>
        <time>2011-01-15T08:14:00Z</time>
      </trkpt>
      <trkpt lat="45.53872" lon="6.58018">
        <ele>1223.4150390625</ele>
        <time>2011-01-15T08:14:17Z</time>
      </trkpt>
      <trkpt lat="45.53864" lon="6.57997">
        <ele>1226.7795410156</ele>
        <time>2011-01-15T08:14:35Z</time>
      </trkpt>
      <trkpt lat="45.53856" lon="6.57977">
        <ele>1229.6635742188</ele>
        <time>2011-01-15T08:14:53Z</time>
      </trkpt>
      <trkpt lat="45.53849" lon="6.5795">
        <ele>1227.2602539062</ele>
        <time>2011-01-15T08:15:15Z</time>
      </trkpt>
      <trkpt lat="45.53844" lon="6.57926">
        <ele>1227.2602539062</ele>
        <time>2011-01-15T08:15:35Z</time>
      </trkpt>
      <trkpt lat="45.53838" lon="6.57898">
        <ele>1228.2216796875</ele>
        <time>2011-01-15T08:15:59Z</time>
      </trkpt>
      <trkpt lat="45.53835" lon="6.57875">
        <ele>1228.7023925781</ele>
        <time>2011-01-15T08:16:18Z</time>
      </trkpt>
      <trkpt lat="45.53832" lon="6.57856">
        <ele>1230.1442871094</ele>
        <time>2011-01-15T08:16:36Z</time>
      </trkpt>
      <trkpt lat="45.53835" lon="6.57842">
        <ele>1230.625</ele>
        <time>2011-01-15T08:16:55Z</time>
      </trkpt>
      <trkpt lat="45.53838" lon="6.5783">
        <ele>1233.9895019531</ele>
        <time>2011-01-15T08:17:12Z</time>
      </trkpt>
      <trkpt lat="45.53838" lon="6.57816">
        <ele>1238.3154296875</ele>
        <time>2011-01-15T08:17:31Z</time>
      </trkpt>
      <trkpt lat="45.53834" lon="6.57808">
        <ele>1242.1606445312</ele>
        <time>2011-01-15T08:17:46Z</time>
      </trkpt>
      <trkpt lat="45.53832" lon="6.57798">
        <ele>1244.0834960938</ele>
        <time>2011-01-15T08:18:00Z</time>
      </trkpt>
      <trkpt lat="45.53828" lon="6.57781">
        <ele>1246.4868164062</ele>
        <time>2011-01-15T08:18:20Z</time>
      </trkpt>
      <trkpt lat="45.53824" lon="6.57765">
        <ele>1248.8898925781</ele>
        <time>2011-01-15T08:18:41Z</time>
      </trkpt>
      <trkpt lat="45.5382" lon="6.5775">
        <ele>1252.2543945312</ele>
        <time>2011-01-15T08:18:59Z</time>
      </trkpt>
      <trkpt lat="45.53816" lon="6.57735">
        <ele>1253.6965332031</ele>
        <time>2011-01-15T08:19:16Z</time>
      </trkpt>
      <trkpt lat="45.53815" lon="6.5772">
        <ele>1256.5803222656</ele>
        <time>2011-01-15T08:19:34Z</time>
      </trkpt>
      <trkpt lat="45.53817" lon="6.57709">
        <ele>1257.5417480469</ele>
        <time>2011-01-15T08:19:49Z</time>
      </trkpt>
      <trkpt lat="45.53815" lon="6.57692">
        <ele>1258.9836425781</ele>
        <time>2011-01-15T08:20:10Z</time>
      </trkpt>
      <trkpt lat="45.53811" lon="6.5768">
        <ele>1264.2709960938</ele>
        <time>2011-01-15T08:20:28Z</time>
      </trkpt>
      <trkpt lat="45.53808" lon="6.57668">
        <ele>1265.7131347656</ele>
        <time>2011-01-15T08:20:44Z</time>
      </trkpt>
      <trkpt lat="45.53809" lon="6.57669">
        <ele>1269.0776367188</ele>
        <time>2011-01-15T08:21:24Z</time>
      </trkpt>
      <trkpt lat="45.53808" lon="6.57669">
        <ele>1280.6135253906</ele>
        <time>2011-01-15T08:22:16Z</time>
      </trkpt>
      <trkpt lat="45.53807" lon="6.57675">
        <ele>1284.4587402344</ele>
        <time>2011-01-15T08:23:23Z</time>
      </trkpt>
      <trkpt lat="45.53808" lon="6.57668">
        <ele>1272.9228515625</ele>
        <time>2011-01-15T08:24:10Z</time>
      </trkpt>
      <trkpt lat="45.53805" lon="6.57658">
        <ele>1270.51953125</ele>
        <time>2011-01-15T08:24:56Z</time>
      </trkpt>
      <trkpt lat="45.53798" lon="6.57645">
        <ele>1274.8454589844</ele>
        <time>2011-01-15T08:25:16Z</time>
      </trkpt>
      <trkpt lat="45.53794" lon="6.5763">
        <ele>1280.1328125</ele>
        <time>2011-01-15T08:25:34Z</time>
      </trkpt>
      <trkpt lat="45.5379" lon="6.57616">
        <ele>1283.9780273438</ele>
        <time>2011-01-15T08:25:51Z</time>
      </trkpt>
      <trkpt lat="45.53788" lon="6.57601">
        <ele>1287.8232421875</ele>
        <time>2011-01-15T08:26:08Z</time>
      </trkpt>
      <trkpt lat="45.53788" lon="6.57584">
        <ele>1289.7458496094</ele>
        <time>2011-01-15T08:26:27Z</time>
      </trkpt>
      <trkpt lat="45.53792" lon="6.57569">
        <ele>1291.1877441406</ele>
        <time>2011-01-15T08:26:45Z</time>
      </trkpt>
      <trkpt lat="45.53797" lon="6.57554">
        <ele>1295.5139160156</ele>
        <time>2011-01-15T08:27:05Z</time>
      </trkpt>
      <trkpt lat="45.53798" lon="6.57542">
        <ele>1297.9172363281</ele>
        <time>2011-01-15T08:27:22Z</time>
      </trkpt>
      <trkpt lat="45.53797" lon="6.57527">
        <ele>1301.2817382812</ele>
        <time>2011-01-15T08:27:42Z</time>
      </trkpt>
      <trkpt lat="45.53797" lon="6.57514">
        <ele>1303.6850585938</ele>
        <time>2011-01-15T08:28:00Z</time>
      </trkpt>
      <trkpt lat="45.53796" lon="6.575">
        <ele>1307.0495605469</ele>
        <time>2011-01-15T08:28:19Z</time>
      </trkpt>
      <trkpt lat="45.53794" lon="6.57486">
        <ele>1310.4143066406</ele>
        <time>2011-01-15T08:28:38Z</time>
      </trkpt>
      <trkpt lat="45.53787" lon="6.57476">
        <ele>1312.8176269531</ele>
        <time>2011-01-15T08:28:56Z</time>
      </trkpt>
      <trkpt lat="45.53782" lon="6.57465">
        <ele>1315.2209472656</ele>
        <time>2011-01-15T08:29:13Z</time>
      </trkpt>
      <trkpt lat="45.53781" lon="6.57466">
        <ele>1317.1435546875</ele>
        <time>2011-01-15T08:29:29Z</time>
      </trkpt>
      <trkpt lat="45.53781" lon="6.57466">
        <ele>1315.2209472656</ele>
        <time>2011-01-15T08:29:49Z</time>
      </trkpt>
      <trkpt lat="45.53782" lon="6.57466">
        <ele>1313.7788085938</ele>
        <time>2011-01-15T08:30:08Z</time>
      </trkpt>
      <trkpt lat="45.53783" lon="6.57467">
        <ele>1313.7788085938</ele>
        <time>2011-01-15T08:30:43Z</time>
      </trkpt>
      <trkpt lat="45.53784" lon="6.5747">
        <ele>1320.02734375</ele>
        <time>2011-01-15T08:32:55Z</time>
      </trkpt>
      <trkpt lat="45.53781" lon="6.57467">
        <ele>1313.2983398438</ele>
        <time>2011-01-15T08:35:30Z</time>
      </trkpt>
      <trkpt lat="45.5378" lon="6.57467">
        <ele>1314.2595214844</ele>
        <time>2011-01-15T08:35:57Z</time>
      </trkpt>
      <trkpt lat="45.53778" lon="6.57467">
        <ele>1313.2983398438</ele>
        <time>2011-01-15T08:36:41Z</time>
      </trkpt>
      <trkpt lat="45.53776" lon="6.57459">
        <ele>1315.7016601562</ele>
        <time>2011-01-15T08:36:58Z</time>
      </trkpt>
      <trkpt lat="45.53774" lon="6.57448">
        <ele>1318.5854492188</ele>
        <time>2011-01-15T08:37:13Z</time>
      </trkpt>
      <trkpt lat="45.53775" lon="6.5744">
        <ele>1321.4692382812</ele>
        <time>2011-01-15T08:37:28Z</time>
      </trkpt>
      <trkpt lat="45.53772" lon="6.57431">
        <ele>1323.8725585938</ele>
        <time>2011-01-15T08:37:42Z</time>
      </trkpt>
      <trkpt lat="45.53764" lon="6.5742">
        <ele>1326.7568359375</ele>
        <time>2011-01-15T08:37:59Z</time>
      </trkpt>
      <trkpt lat="45.53764" lon="6.57405">
        <ele>1330.1213378906</ele>
        <time>2011-01-15T08:38:18Z</time>
      </trkpt>
      <trkpt lat="45.53758" lon="6.57396">
        <ele>1331.5632324219</ele>
        <time>2011-01-15T08:38:32Z</time>
      </trkpt>
      <trkpt lat="45.53759" lon="6.57382">
        <ele>1334.9279785156</ele>
        <time>2011-01-15T08:38:49Z</time>
      </trkpt>
      <trkpt lat="45.53759" lon="6.57368">
        <ele>1337.3310546875</ele>
        <time>2011-01-15T08:39:06Z</time>
      </trkpt>
      <trkpt lat="45.53761" lon="6.57356">
        <ele>1340.6958007812</ele>
        <time>2011-01-15T08:39:24Z</time>
      </trkpt>
      <trkpt lat="45.53759" lon="6.57342">
        <ele>1343.5798339844</ele>
        <time>2011-01-15T08:39:43Z</time>
      </trkpt>
      <trkpt lat="45.53756" lon="6.57331">
        <ele>1346.4638671875</ele>
        <time>2011-01-15T08:39:58Z</time>
      </trkpt>
      <trkpt lat="45.53755" lon="6.57317">
        <ele>1348.8669433594</ele>
        <time>2011-01-15T08:40:16Z</time>
      </trkpt>
      <trkpt lat="45.53754" lon="6.57304">
        <ele>1351.2702636719</ele>
        <time>2011-01-15T08:40:33Z</time>
      </trkpt>
      <trkpt lat="45.53755" lon="6.57291">
        <ele>1354.154296875</ele>
        <time>2011-01-15T08:40:50Z</time>
      </trkpt>
      <trkpt lat="45.53752" lon="6.57277">
        <ele>1357.0383300781</ele>
        <time>2011-01-15T08:41:08Z</time>
      </trkpt>
      <trkpt lat="45.53752" lon="6.57265">
        <ele>1359.9221191406</ele>
        <time>2011-01-15T08:41:24Z</time>
      </trkpt>
      <trkpt lat="45.53753" lon="6.57244">
        <ele>1362.8061523438</ele>
        <time>2011-01-15T08:41:46Z</time>
      </trkpt>
      <trkpt lat="45.53754" lon="6.57228">
        <ele>1365.2094726562</ele>
        <time>2011-01-15T08:42:04Z</time>
      </trkpt>
      <trkpt lat="45.53754" lon="6.57218">
        <ele>1367.6125488281</ele>
        <time>2011-01-15T08:42:17Z</time>
      </trkpt>
      <trkpt lat="45.53749" lon="6.57197">
        <ele>1370.0158691406</ele>
        <time>2011-01-15T08:42:42Z</time>
      </trkpt>
      <trkpt lat="45.53739" lon="6.57189">
        <ele>1371.4577636719</ele>
        <time>2011-01-15T08:43:01Z</time>
      </trkpt>
      <trkpt lat="45.53733" lon="6.57176">
        <ele>1373.861328125</ele>
        <time>2011-01-15T08:43:17Z</time>
      </trkpt>
      <trkpt lat="45.5373" lon="6.57163">
        <ele>1375.7839355469</ele>
        <time>2011-01-15T08:43:35Z</time>
      </trkpt>
      <trkpt lat="45.53724" lon="6.57156">
        <ele>1377.2260742188</ele>
        <time>2011-01-15T08:43:49Z</time>
      </trkpt>
      <trkpt lat="45.53725" lon="6.57144">
        <ele>1379.6291503906</ele>
        <time>2011-01-15T08:44:07Z</time>
      </trkpt>
      <trkpt lat="45.53717" lon="6.57134">
        <ele>1382.0324707031</ele>
        <time>2011-01-15T08:44:24Z</time>
      </trkpt>
      <trkpt lat="45.53717" lon="6.57125">
        <ele>1384.9165039062</ele>
        <time>2011-01-15T08:44:40Z</time>
      </trkpt>
      <trkpt lat="45.53722" lon="6.57118">
        <ele>1388.7619628906</ele>
        <time>2011-01-15T08:44:57Z</time>
      </trkpt>
      <trkpt lat="45.53719" lon="6.5711">
        <ele>1390.6843261719</ele>
        <time>2011-01-15T08:45:12Z</time>
      </trkpt>
      <trkpt lat="45.53705" lon="6.57097">
        <ele>1393.0876464844</ele>
        <time>2011-01-15T08:45:36Z</time>
      </trkpt>
      <trkpt lat="45.537" lon="6.57088">
        <ele>1395.4909667969</ele>
        <time>2011-01-15T08:45:52Z</time>
      </trkpt>
      <trkpt lat="45.53691" lon="6.57081">
        <ele>1397.4135742188</ele>
        <time>2011-01-15T08:46:12Z</time>
      </trkpt>
      <trkpt lat="45.53689" lon="6.57081">
        <ele>1396.9328613281</ele>
        <time>2011-01-15T08:46:15Z</time>
      </trkpt>
      <trkpt lat="45.53682" lon="6.57081">
        <ele>1397.8942871094</ele>
        <time>2011-01-15T08:46:29Z</time>
      </trkpt>
      <trkpt lat="45.53679" lon="6.57079">
        <ele>1397.8942871094</ele>
        <time>2011-01-15T08:46:44Z</time>
      </trkpt>
      <trkpt lat="45.53674" lon="6.57077">
        <ele>1397.4135742188</ele>
        <time>2011-01-15T08:46:55Z</time>
      </trkpt>
      <trkpt lat="45.53673" lon="6.57075">
        <ele>1397.4135742188</ele>
        <time>2011-01-15T08:47:18Z</time>
      </trkpt>
      <trkpt lat="45.5367" lon="6.57067">
        <ele>1402.2199707031</ele>
        <time>2011-01-15T08:47:34Z</time>
      </trkpt>
      <trkpt lat="45.53667" lon="6.57061">
        <ele>1404.1430664062</ele>
        <time>2011-01-15T08:47:46Z</time>
      </trkpt>
      <trkpt lat="45.53661" lon="6.57055">
        <ele>1408.9494628906</ele>
        <time>2011-01-15T08:48:03Z</time>
      </trkpt>
      <trkpt lat="45.53654" lon="6.57046">
        <ele>1409.9106445312</ele>
        <time>2011-01-15T08:48:19Z</time>
      </trkpt>
      <trkpt lat="45.53653" lon="6.57038">
        <ele>1413.275390625</ele>
        <time>2011-01-15T08:48:36Z</time>
      </trkpt>
      <trkpt lat="45.53651" lon="6.57032">
        <ele>1415.1979980469</ele>
        <time>2011-01-15T08:48:49Z</time>
      </trkpt>
      <trkpt lat="45.53651" lon="6.57032">
        <ele>1414.7172851562</ele>
        <time>2011-01-15T08:49:17Z</time>
      </trkpt>
      <trkpt lat="45.53653" lon="6.57029">
        <ele>1416.6398925781</ele>
        <time>2011-01-15T08:49:40Z</time>
      </trkpt>
      <trkpt lat="45.5365" lon="6.5702">
        <ele>1418.0817871094</ele>
        <time>2011-01-15T08:49:54Z</time>
      </trkpt>
      <trkpt lat="45.5366" lon="6.57019">
        <ele>1420.9660644531</ele>
        <time>2011-01-15T08:50:11Z</time>
      </trkpt>
      <trkpt lat="45.53666" lon="6.57008">
        <ele>1423.8498535156</ele>
        <time>2011-01-15T08:50:29Z</time>
      </trkpt>
      <trkpt lat="45.53663" lon="6.56991">
        <ele>1425.2917480469</ele>
        <time>2011-01-15T08:50:50Z</time>
      </trkpt>
      <trkpt lat="45.53663" lon="6.56978">
        <ele>1427.6950683594</ele>
        <time>2011-01-15T08:51:08Z</time>
      </trkpt>
      <trkpt lat="45.53657" lon="6.56966">
        <ele>1430.0983886719</ele>
        <time>2011-01-15T08:51:26Z</time>
      </trkpt>
      <trkpt lat="45.53661" lon="6.5696">
        <ele>1432.9821777344</ele>
        <time>2011-01-15T08:51:39Z</time>
      </trkpt>
      <trkpt lat="45.53664" lon="6.56957">
        <ele>1435.3854980469</ele>
        <time>2011-01-15T08:51:56Z</time>
      </trkpt>
      <trkpt lat="45.53666" lon="6.56955">
        <ele>1435.3854980469</ele>
        <time>2011-01-15T08:53:04Z</time>
      </trkpt>
      <trkpt lat="45.53666" lon="6.56953">
        <ele>1432.0209960938</ele>
        <time>2011-01-15T08:53:57Z</time>
      </trkpt>
      <trkpt lat="45.53665" lon="6.56954">
        <ele>1433.462890625</ele>
        <time>2011-01-15T08:55:10Z</time>
      </trkpt>
      <trkpt lat="45.53665" lon="6.56948">
        <ele>1436.8276367188</ele>
        <time>2011-01-15T08:55:23Z</time>
      </trkpt>
      <trkpt lat="45.53665" lon="6.56941">
        <ele>1438.2697753906</ele>
        <time>2011-01-15T08:55:36Z</time>
      </trkpt>
      <trkpt lat="45.53665" lon="6.5693">
        <ele>1440.1923828125</ele>
        <time>2011-01-15T08:55:51Z</time>
      </trkpt>
      <trkpt lat="45.53665" lon="6.56925">
        <ele>1442.1149902344</ele>
        <time>2011-01-15T08:56:08Z</time>
      </trkpt>
      <trkpt lat="45.53663" lon="6.56921">
        <ele>1443.076171875</ele>
        <time>2011-01-15T08:56:29Z</time>
      </trkpt>
      <trkpt lat="45.53662" lon="6.56919">
        <ele>1443.076171875</ele>
        <time>2011-01-15T08:56:47Z</time>
      </trkpt>
      <trkpt lat="45.53664" lon="6.56914">
        <ele>1444.9987792969</ele>
        <time>2011-01-15T08:57:00Z</time>
      </trkpt>
      <trkpt lat="45.53665" lon="6.5691">
        <ele>1446.4409179688</ele>
        <time>2011-01-15T08:57:16Z</time>
      </trkpt>
      <trkpt lat="45.53666" lon="6.56903">
        <ele>1447.8828125</ele>
        <time>2011-01-15T08:57:32Z</time>
      </trkpt>
      <trkpt lat="45.53667" lon="6.56891">
        <ele>1450.2861328125</ele>
        <time>2011-01-15T08:57:47Z</time>
      </trkpt>
      <trkpt lat="45.53673" lon="6.56881">
        <ele>1454.1315917969</ele>
        <time>2011-01-15T08:58:04Z</time>
      </trkpt>
      <trkpt lat="45.53673" lon="6.56879">
        <ele>1455.5734863281</ele>
        <time>2011-01-15T08:58:15Z</time>
      </trkpt>
      <trkpt lat="45.53669" lon="6.5687">
        <ele>1455.5734863281</ele>
        <time>2011-01-15T08:58:27Z</time>
      </trkpt>
      <trkpt lat="45.53665" lon="6.56863">
        <ele>1457.0153808594</ele>
        <time>2011-01-15T08:58:40Z</time>
      </trkpt>
      <trkpt lat="45.53666" lon="6.56865">
        <ele>1457.0153808594</ele>
        <time>2011-01-15T08:58:58Z</time>
      </trkpt>
      <trkpt lat="45.53667" lon="6.56868">
        <ele>1457.0153808594</ele>
        <time>2011-01-15T08:59:03Z</time>
      </trkpt>
      <trkpt lat="45.53674" lon="6.5688">
        <ele>1454.6120605469</ele>
        <time>2011-01-15T08:59:12Z</time>
      </trkpt>
      <trkpt lat="45.53678" lon="6.56878">
        <ele>1456.0539550781</ele>
        <time>2011-01-15T08:59:26Z</time>
      </trkpt>
      <trkpt lat="45.53681" lon="6.56878">
        <ele>1461.3413085938</ele>
        <time>2011-01-15T08:59:37Z</time>
      </trkpt>
      <trkpt lat="45.53689" lon="6.56876">
        <ele>1469.5126953125</ele>
        <time>2011-01-15T08:59:55Z</time>
      </trkpt>
      <trkpt lat="45.53693" lon="6.56878">
        <ele>1472.8771972656</ele>
        <time>2011-01-15T09:00:06Z</time>
      </trkpt>
      <trkpt lat="45.53701" lon="6.56885">
        <ele>1473.3579101562</ele>
        <time>2011-01-15T09:00:19Z</time>
      </trkpt>
      <trkpt lat="45.53711" lon="6.56892">
        <ele>1474.7998046875</ele>
        <time>2011-01-15T09:00:36Z</time>
      </trkpt>
      <trkpt lat="45.5372" lon="6.56897">
        <ele>1479.1254882812</ele>
        <time>2011-01-15T09:00:55Z</time>
      </trkpt>
      <trkpt lat="45.53733" lon="6.56895">
        <ele>1478.6450195312</ele>
        <time>2011-01-15T09:01:15Z</time>
      </trkpt>
      <trkpt lat="45.53741" lon="6.56891">
        <ele>1481.0483398438</ele>
        <time>2011-01-15T09:01:33Z</time>
      </trkpt>
      <trkpt lat="45.53749" lon="6.56895">
        <ele>1482.970703125</ele>
        <time>2011-01-15T09:01:51Z</time>
      </trkpt>
      <trkpt lat="45.53756" lon="6.56898">
        <ele>1484.8937988281</ele>
        <time>2011-01-15T09:02:09Z</time>
      </trkpt>
      <trkpt lat="45.53763" lon="6.56897">
        <ele>1486.3356933594</ele>
        <time>2011-01-15T09:02:26Z</time>
      </trkpt>
      <trkpt lat="45.53776" lon="6.56898">
        <ele>1488.2583007812</ele>
        <time>2011-01-15T09:02:46Z</time>
      </trkpt>
      <trkpt lat="45.53786" lon="6.56898">
        <ele>1490.1809082031</ele>
        <time>2011-01-15T09:03:02Z</time>
      </trkpt>
      <trkpt lat="45.53798" lon="6.569">
        <ele>1491.6228027344</ele>
        <time>2011-01-15T09:03:22Z</time>
      </trkpt>
      <trkpt lat="45.53807" lon="6.56899">
        <ele>1492.103515625</ele>
        <time>2011-01-15T09:03:36Z</time>
      </trkpt>
      <trkpt lat="45.53817" lon="6.56901">
        <ele>1492.5842285156</ele>
        <time>2011-01-15T09:03:51Z</time>
      </trkpt>
      <trkpt lat="45.5383" lon="6.56906">
        <ele>1494.9873046875</ele>
        <time>2011-01-15T09:04:11Z</time>
      </trkpt>
      <trkpt lat="45.53835" lon="6.56906">
        <ele>1495.4680175781</ele>
        <time>2011-01-15T09:04:28Z</time>
      </trkpt>
      <trkpt lat="45.53835" lon="6.56909">
        <ele>1494.5065917969</ele>
        <time>2011-01-15T09:04:42Z</time>
      </trkpt>
      <trkpt lat="45.53834" lon="6.56911">
        <ele>1495.4680175781</ele>
        <time>2011-01-15T09:05:59Z</time>
      </trkpt>
      <trkpt lat="45.53835" lon="6.56911">
        <ele>1494.9873046875</ele>
        <time>2011-01-15T09:06:45Z</time>
      </trkpt>
      <trkpt lat="45.53837" lon="6.56906">
        <ele>1492.103515625</ele>
        <time>2011-01-15T09:07:28Z</time>
      </trkpt>
      <trkpt lat="45.53837" lon="6.56908">
        <ele>1492.5842285156</ele>
        <time>2011-01-15T09:07:45Z</time>
      </trkpt>
      <trkpt lat="45.53837" lon="6.56909">
        <ele>1494.0261230469</ele>
        <time>2011-01-15T09:09:08Z</time>
      </trkpt>
      <trkpt lat="45.53837" lon="6.56909">
        <ele>1494.5065917969</ele>
        <time>2011-01-15T09:10:25Z</time>
      </trkpt>
      <trkpt lat="45.53836" lon="6.5691">
        <ele>1494.0261230469</ele>
        <time>2011-01-15T09:11:15Z</time>
      </trkpt>
      <trkpt lat="45.53836" lon="6.5691">
        <ele>1494.5065917969</ele>
        <time>2011-01-15T09:12:46Z</time>
      </trkpt>
      <trkpt lat="45.53837" lon="6.56913">
        <ele>1493.0646972656</ele>
        <time>2011-01-15T09:13:16Z</time>
      </trkpt>
      <trkpt lat="45.53837" lon="6.56918">
        <ele>1492.5842285156</ele>
        <time>2011-01-15T09:13:33Z</time>
      </trkpt>
      <trkpt lat="45.53837" lon="6.56917">
        <ele>1493.0646972656</ele>
        <time>2011-01-15T09:13:43Z</time>
      </trkpt>
      <trkpt lat="45.53837" lon="6.56917">
        <ele>1492.5842285156</ele>
        <time>2011-01-15T09:14:32Z</time>
      </trkpt>
      <trkpt lat="45.53838" lon="6.5691">
        <ele>1493.0646972656</ele>
        <time>2011-01-15T09:14:51Z</time>
      </trkpt>
      <trkpt lat="45.53838" lon="6.56909">
        <ele>1492.5842285156</ele>
        <time>2011-01-15T09:15:12Z</time>
      </trkpt>
      <trkpt lat="45.53838" lon="6.56909">
        <ele>1492.5842285156</ele>
        <time>2011-01-15T09:15:46Z</time>
      </trkpt>
      <trkpt lat="45.53838" lon="6.56909">
        <ele>1492.5842285156</ele>
        <time>2011-01-15T09:16:34Z</time>
      </trkpt>
      <trkpt lat="45.5384" lon="6.56907">
        <ele>1494.0261230469</ele>
        <time>2011-01-15T09:17:07Z</time>
      </trkpt>
      <trkpt lat="45.5385" lon="6.56906">
        <ele>1494.9873046875</ele>
        <time>2011-01-15T09:17:24Z</time>
      </trkpt>
      <trkpt lat="45.53865" lon="6.56908">
        <ele>1497.8713378906</ele>
        <time>2011-01-15T09:17:43Z</time>
      </trkpt>
      <trkpt lat="45.53878" lon="6.56907">
        <ele>1501.2360839844</ele>
        <time>2011-01-15T09:18:08Z</time>
      </trkpt>
      <trkpt lat="45.53888" lon="6.5691">
        <ele>1504.1201171875</ele>
        <time>2011-01-15T09:18:36Z</time>
      </trkpt>
      <trkpt lat="45.53896" lon="6.56901">
        <ele>1507.9653320312</ele>
        <time>2011-01-15T09:18:52Z</time>
      </trkpt>
      <trkpt lat="45.53906" lon="6.56897">
        <ele>1509.8876953125</ele>
        <time>2011-01-15T09:19:08Z</time>
      </trkpt>
      <trkpt lat="45.53921" lon="6.56906">
        <ele>1513.2524414062</ele>
        <time>2011-01-15T09:19:32Z</time>
      </trkpt>
      <trkpt lat="45.53928" lon="6.56917">
        <ele>1516.1364746094</ele>
        <time>2011-01-15T09:19:49Z</time>
      </trkpt>
      <trkpt lat="45.53927" lon="6.56934">
        <ele>1519.0205078125</ele>
        <time>2011-01-15T09:20:07Z</time>
      </trkpt>
      <trkpt lat="45.5393" lon="6.56949">
        <ele>1522.8657226562</ele>
        <time>2011-01-15T09:20:22Z</time>
      </trkpt>
      <trkpt lat="45.53936" lon="6.56965">
        <ele>1529.1140136719</ele>
        <time>2011-01-15T09:20:41Z</time>
      </trkpt>
      <trkpt lat="45.53941" lon="6.56981">
        <ele>1530.5561523438</ele>
        <time>2011-01-15T09:21:01Z</time>
      </trkpt>
      <trkpt lat="45.5395" lon="6.56996">
        <ele>1530.5561523438</ele>
        <time>2011-01-15T09:21:20Z</time>
      </trkpt>
      <trkpt lat="45.53958" lon="6.56989">
        <ele>1532.4790039062</ele>
        <time>2011-01-15T09:21:37Z</time>
      </trkpt>
      <trkpt lat="45.5396" lon="6.56975">
        <ele>1534.8823242188</ele>
        <time>2011-01-15T09:21:54Z</time>
      </trkpt>
      <trkpt lat="45.53964" lon="6.56971">
        <ele>1536.32421875</ele>
        <time>2011-01-15T09:22:08Z</time>
      </trkpt>
      <trkpt lat="45.53974" lon="6.5698">
        <ele>1539.2080078125</ele>
        <time>2011-01-15T09:22:28Z</time>
      </trkpt>
      <trkpt lat="45.5398" lon="6.56986">
        <ele>1541.611328125</ele>
        <time>2011-01-15T09:22:42Z</time>
      </trkpt>
      <trkpt lat="45.53986" lon="6.5698">
        <ele>1544.9758300781</ele>
        <time>2011-01-15T09:22:59Z</time>
      </trkpt>
      <trkpt lat="45.53991" lon="6.56969">
        <ele>1547.3791503906</ele>
        <time>2011-01-15T09:23:14Z</time>
      </trkpt>
      <trkpt lat="45.53997" lon="6.56965">
        <ele>1548.8212890625</ele>
        <time>2011-01-15T09:23:33Z</time>
      </trkpt>
      <trkpt lat="45.54004" lon="6.56954">
        <ele>1551.224609375</ele>
        <time>2011-01-15T09:23:49Z</time>
      </trkpt>
      <trkpt lat="45.54007" lon="6.56949">
        <ele>1552.1857910156</ele>
        <time>2011-01-15T09:24:08Z</time>
      </trkpt>
      <trkpt lat="45.54015" lon="6.56944">
        <ele>1554.1086425781</ele>
        <time>2011-01-15T09:24:22Z</time>
      </trkpt>
      <trkpt lat="45.54023" lon="6.56931">
        <ele>1555.5505371094</ele>
        <time>2011-01-15T09:24:39Z</time>
      </trkpt>
      <trkpt lat="45.54023" lon="6.56922">
        <ele>1554.5891113281</ele>
        <time>2011-01-15T09:24:53Z</time>
      </trkpt>
      <trkpt lat="45.54017" lon="6.56915">
        <ele>1553.1472167969</ele>
        <time>2011-01-15T09:25:08Z</time>
      </trkpt>
      <trkpt lat="45.54014" lon="6.5691">
        <ele>1553.6279296875</ele>
        <time>2011-01-15T09:25:33Z</time>
      </trkpt>
      <trkpt lat="45.54014" lon="6.56903">
        <ele>1552.6665039062</ele>
        <time>2011-01-15T09:26:30Z</time>
      </trkpt>
      <trkpt lat="45.5401" lon="6.56884">
        <ele>1553.6279296875</ele>
        <time>2011-01-15T09:26:50Z</time>
      </trkpt>
      <trkpt lat="45.54009" lon="6.56872">
        <ele>1556.51171875</ele>
        <time>2011-01-15T09:27:07Z</time>
      </trkpt>
      <trkpt lat="45.54005" lon="6.56866">
        <ele>1557.9538574219</ele>
        <time>2011-01-15T09:27:20Z</time>
      </trkpt>
      <trkpt lat="45.54008" lon="6.56861">
        <ele>1559.8762207031</ele>
        <time>2011-01-15T09:27:33Z</time>
      </trkpt>
      <trkpt lat="45.54012" lon="6.56852">
        <ele>1563.2409667969</ele>
        <time>2011-01-15T09:27:51Z</time>
      </trkpt>
      <trkpt lat="45.54005" lon="6.56841">
        <ele>1565.1638183594</ele>
        <time>2011-01-15T09:28:10Z</time>
      </trkpt>
      <trkpt lat="45.5401" lon="6.56838">
        <ele>1567.5668945312</ele>
        <time>2011-01-15T09:28:24Z</time>
      </trkpt>
      <trkpt lat="45.54019" lon="6.56836">
        <ele>1569.9702148438</ele>
        <time>2011-01-15T09:28:42Z</time>
      </trkpt>
      <trkpt lat="45.54026" lon="6.56832">
        <ele>1573.3349609375</ele>
        <time>2011-01-15T09:28:58Z</time>
      </trkpt>
      <trkpt lat="45.54025" lon="6.56818">
        <ele>1575.7380371094</ele>
        <time>2011-01-15T09:29:16Z</time>
      </trkpt>
      <trkpt lat="45.54036" lon="6.5682">
        <ele>1578.6220703125</ele>
        <time>2011-01-15T09:29:35Z</time>
      </trkpt>
      <trkpt lat="45.54046" lon="6.5682">
        <ele>1581.9868164062</ele>
        <time>2011-01-15T09:29:55Z</time>
      </trkpt>
      <trkpt lat="45.54048" lon="6.56811">
        <ele>1583.9094238281</ele>
        <time>2011-01-15T09:30:12Z</time>
      </trkpt>
      <trkpt lat="45.54055" lon="6.5681">
        <ele>1585.83203125</ele>
        <time>2011-01-15T09:30:32Z</time>
      </trkpt>
      <trkpt lat="45.54061" lon="6.56807">
        <ele>1588.2353515625</ele>
        <time>2011-01-15T09:30:47Z</time>
      </trkpt>
      <trkpt lat="45.54053" lon="6.56799">
        <ele>1589.6772460938</ele>
        <time>2011-01-15T09:31:01Z</time>
      </trkpt>
      <trkpt lat="45.54044" lon="6.56789">
        <ele>1592.5612792969</ele>
        <time>2011-01-15T09:31:20Z</time>
      </trkpt>
      <trkpt lat="45.54037" lon="6.56779">
        <ele>1594.4836425781</ele>
        <time>2011-01-15T09:31:36Z</time>
      </trkpt>
      <trkpt lat="45.54031" lon="6.56767">
        <ele>1595.92578125</ele>
        <time>2011-01-15T09:31:55Z</time>
      </trkpt>
      <trkpt lat="45.54021" lon="6.56753">
        <ele>1598.3291015625</ele>
        <time>2011-01-15T09:32:15Z</time>
      </trkpt>
      <trkpt lat="45.54018" lon="6.5674">
        <ele>1601.2131347656</ele>
        <time>2011-01-15T09:32:33Z</time>
      </trkpt>
      <trkpt lat="45.5401" lon="6.56732">
        <ele>1604.0971679688</ele>
        <time>2011-01-15T09:32:50Z</time>
      </trkpt>
      <trkpt lat="45.54005" lon="6.5672">
        <ele>1606.5002441406</ele>
        <time>2011-01-15T09:33:09Z</time>
      </trkpt>
      <trkpt lat="45.54" lon="6.56707">
        <ele>1609.8647460938</ele>
        <time>2011-01-15T09:33:28Z</time>
      </trkpt>
      <trkpt lat="45.53993" lon="6.56697">
        <ele>1612.2683105469</ele>
        <time>2011-01-15T09:33:47Z</time>
      </trkpt>
      <trkpt lat="45.53988" lon="6.56684">
        <ele>1615.6330566406</ele>
        <time>2011-01-15T09:34:06Z</time>
      </trkpt>
      <trkpt lat="45.53998" lon="6.56678">
        <ele>1619.4782714844</ele>
        <time>2011-01-15T09:34:27Z</time>
      </trkpt>
      <trkpt lat="45.54003" lon="6.56671">
        <ele>1621.8813476562</ele>
        <time>2011-01-15T09:34:43Z</time>
      </trkpt>
      <trkpt lat="45.54013" lon="6.5667">
        <ele>1624.7653808594</ele>
        <time>2011-01-15T09:35:02Z</time>
      </trkpt>
      <trkpt lat="45.54024" lon="6.56668">
        <ele>1627.6491699219</ele>
        <time>2011-01-15T09:35:22Z</time>
      </trkpt>
      <trkpt lat="45.54035" lon="6.56667">
        <ele>1630.052734375</ele>
        <time>2011-01-15T09:35:42Z</time>
      </trkpt>
      <trkpt lat="45.54045" lon="6.56668">
        <ele>1632.9365234375</ele>
        <time>2011-01-15T09:36:01Z</time>
      </trkpt>
      <trkpt lat="45.54056" lon="6.5667">
        <ele>1635.33984375</ele>
        <time>2011-01-15T09:36:21Z</time>
      </trkpt>
      <trkpt lat="45.54066" lon="6.56671">
        <ele>1638.2238769531</ele>
        <time>2011-01-15T09:36:41Z</time>
      </trkpt>
      <trkpt lat="45.54076" lon="6.56672">
        <ele>1641.1076660156</ele>
        <time>2011-01-15T09:36:59Z</time>
      </trkpt>
      <trkpt lat="45.54074" lon="6.56668">
        <ele>1642.0690917969</ele>
        <time>2011-01-15T09:37:09Z</time>
      </trkpt>
      <trkpt lat="45.54068" lon="6.56652">
        <ele>1644.953125</ele>
        <time>2011-01-15T09:37:30Z</time>
      </trkpt>
      <trkpt lat="45.5407" lon="6.56645">
        <ele>1647.8371582031</ele>
        <time>2011-01-15T09:37:46Z</time>
      </trkpt>
      <trkpt lat="45.54079" lon="6.56647">
        <ele>1650.2404785156</ele>
        <time>2011-01-15T09:38:04Z</time>
      </trkpt>
      <trkpt lat="45.54088" lon="6.56651">
        <ele>1652.6435546875</ele>
        <time>2011-01-15T09:38:21Z</time>
      </trkpt>
      <trkpt lat="45.54096" lon="6.56657">
        <ele>1655.046875</ele>
        <time>2011-01-15T09:38:39Z</time>
      </trkpt>
      <trkpt lat="45.54097" lon="6.56652">
        <ele>1657.4501953125</ele>
        <time>2011-01-15T09:38:53Z</time>
      </trkpt>
      <trkpt lat="45.54101" lon="6.56654">
        <ele>1658.4113769531</ele>
        <time>2011-01-15T09:39:11Z</time>
      </trkpt>
      <trkpt lat="45.54107" lon="6.56657">
        <ele>1658.4113769531</ele>
        <time>2011-01-15T09:39:56Z</time>
      </trkpt>
      <trkpt lat="45.54114" lon="6.56662">
        <ele>1659.8532714844</ele>
        <time>2011-01-15T09:40:13Z</time>
      </trkpt>
      <trkpt lat="45.54121" lon="6.56667">
        <ele>1661.7763671875</ele>
        <time>2011-01-15T09:40:32Z</time>
      </trkpt>
      <trkpt lat="45.54131" lon="6.5667">
        <ele>1664.66015625</ele>
        <time>2011-01-15T09:41:10Z</time>
      </trkpt>
      <trkpt lat="45.54143" lon="6.56672">
        <ele>1668.0246582031</ele>
        <time>2011-01-15T09:41:30Z</time>
      </trkpt>
      <trkpt lat="45.54154" lon="6.56672">
        <ele>1670.4279785156</ele>
        <time>2011-01-15T09:41:50Z</time>
      </trkpt>
      <trkpt lat="45.54167" lon="6.56672">
        <ele>1672.3505859375</ele>
        <time>2011-01-15T09:42:08Z</time>
      </trkpt>
      <trkpt lat="45.54178" lon="6.56672">
        <ele>1675.234375</ele>
        <time>2011-01-15T09:42:27Z</time>
      </trkpt>
      <trkpt lat="45.54188" lon="6.56672">
        <ele>1677.6379394531</ele>
        <time>2011-01-15T09:42:45Z</time>
      </trkpt>
      <trkpt lat="45.54197" lon="6.56671">
        <ele>1680.0412597656</ele>
        <time>2011-01-15T09:43:03Z</time>
      </trkpt>
      <trkpt lat="45.54205" lon="6.56672">
        <ele>1681.9638671875</ele>
        <time>2011-01-15T09:43:19Z</time>
      </trkpt>
      <trkpt lat="45.54215" lon="6.5667">
        <ele>1684.8479003906</ele>
        <time>2011-01-15T09:43:38Z</time>
      </trkpt>
      <trkpt lat="45.54224" lon="6.56669">
        <ele>1687.2509765625</ele>
        <time>2011-01-15T09:43:56Z</time>
      </trkpt>
      <trkpt lat="45.54233" lon="6.56667">
        <ele>1690.1350097656</ele>
        <time>2011-01-15T09:44:15Z</time>
      </trkpt>
      <trkpt lat="45.54242" lon="6.56665">
        <ele>1692.5385742188</ele>
        <time>2011-01-15T09:44:33Z</time>
      </trkpt>
      <trkpt lat="45.54253" lon="6.56663">
        <ele>1695.4223632812</ele>
        <time>2011-01-15T09:44:53Z</time>
      </trkpt>
      <trkpt lat="45.54262" lon="6.56662">
        <ele>1697.3449707031</ele>
        <time>2011-01-15T09:45:12Z</time>
      </trkpt>
      <trkpt lat="45.54272" lon="6.56665">
        <ele>1698.7868652344</ele>
        <time>2011-01-15T09:45:29Z</time>
      </trkpt>
      <trkpt lat="45.54283" lon="6.56667">
        <ele>1701.1901855469</ele>
        <time>2011-01-15T09:45:47Z</time>
      </trkpt>
      <trkpt lat="45.54297" lon="6.56669">
        <ele>1704.07421875</ele>
        <time>2011-01-15T09:46:08Z</time>
      </trkpt>
      <trkpt lat="45.54311" lon="6.56673">
        <ele>1706.9580078125</ele>
        <time>2011-01-15T09:46:29Z</time>
      </trkpt>
      <trkpt lat="45.54326" lon="6.5668">
        <ele>1709.8420410156</ele>
        <time>2011-01-15T09:46:51Z</time>
      </trkpt>
      <trkpt lat="45.54338" lon="6.56686">
        <ele>1713.2067871094</ele>
        <time>2011-01-15T09:47:11Z</time>
      </trkpt>
      <trkpt lat="45.5435" lon="6.56686">
        <ele>1716.5712890625</ele>
        <time>2011-01-15T09:47:34Z</time>
      </trkpt>
      <trkpt lat="45.54348" lon="6.56677">
        <ele>1717.0520019531</ele>
        <time>2011-01-15T09:47:50Z</time>
      </trkpt>
      <trkpt lat="45.54359" lon="6.56684">
        <ele>1719.4553222656</ele>
        <time>2011-01-15T09:48:10Z</time>
      </trkpt>
      <trkpt lat="45.54368" lon="6.56688">
        <ele>1721.8583984375</ele>
        <time>2011-01-15T09:48:28Z</time>
      </trkpt>
      <trkpt lat="45.54379" lon="6.56688">
        <ele>1723.7810058594</ele>
        <time>2011-01-15T09:48:47Z</time>
      </trkpt>
      <trkpt lat="45.54391" lon="6.56686">
        <ele>1726.1845703125</ele>
        <time>2011-01-15T09:49:07Z</time>
      </trkpt>
      <trkpt lat="45.54405" lon="6.56684">
        <ele>1729.5490722656</ele>
        <time>2011-01-15T09:49:31Z</time>
      </trkpt>
      <trkpt lat="45.54413" lon="6.56683">
        <ele>1731.9523925781</ele>
        <time>2011-01-15T09:49:48Z</time>
      </trkpt>
      <trkpt lat="45.54424" lon="6.56685">
        <ele>1734.3557128906</ele>
        <time>2011-01-15T09:50:06Z</time>
      </trkpt>
      <trkpt lat="45.54427" lon="6.56685">
        <ele>1735.3168945312</ele>
        <time>2011-01-15T09:50:28Z</time>
      </trkpt>
      <trkpt lat="45.54426" lon="6.56686">
        <ele>1735.3168945312</ele>
        <time>2011-01-15T09:51:09Z</time>
      </trkpt>
      <trkpt lat="45.54425" lon="6.56685">
        <ele>1737.7202148438</ele>
        <time>2011-01-15T09:52:17Z</time>
      </trkpt>
      <trkpt lat="45.54425" lon="6.56684">
        <ele>1739.162109375</ele>
        <time>2011-01-15T09:53:56Z</time>
      </trkpt>
      <trkpt lat="45.54426" lon="6.56685">
        <ele>1738.681640625</ele>
        <time>2011-01-15T09:54:41Z</time>
      </trkpt>
      <trkpt lat="45.54425" lon="6.56685">
        <ele>1739.6428222656</ele>
        <time>2011-01-15T09:55:58Z</time>
      </trkpt>
      <trkpt lat="45.54425" lon="6.56683">
        <ele>1738.681640625</ele>
        <time>2011-01-15T09:57:03Z</time>
      </trkpt>
      <trkpt lat="45.54426" lon="6.56684">
        <ele>1737.2395019531</ele>
        <time>2011-01-15T09:57:51Z</time>
      </trkpt>
      <trkpt lat="45.54425" lon="6.56684">
        <ele>1738.2009277344</ele>
        <time>2011-01-15T09:58:34Z</time>
      </trkpt>
      <trkpt lat="45.54425" lon="6.56683">
        <ele>1738.2009277344</ele>
        <time>2011-01-15T09:59:36Z</time>
      </trkpt>
      <trkpt lat="45.54425" lon="6.56683">
        <ele>1738.2009277344</ele>
        <time>2011-01-15T10:00:26Z</time>
      </trkpt>
      <trkpt lat="45.54426" lon="6.56684">
        <ele>1737.2395019531</ele>
        <time>2011-01-15T10:01:19Z</time>
      </trkpt>
      <trkpt lat="45.54426" lon="6.56686">
        <ele>1738.2009277344</ele>
        <time>2011-01-15T10:02:33Z</time>
      </trkpt>
      <trkpt lat="45.54428" lon="6.56683">
        <ele>1736.2783203125</ele>
        <time>2011-01-15T10:04:20Z</time>
      </trkpt>
      <trkpt lat="45.54442" lon="6.56681">
        <ele>1740.1237792969</ele>
        <time>2011-01-15T10:04:43Z</time>
      </trkpt>
      <trkpt lat="45.54455" lon="6.56677">
        <ele>1743.48828125</ele>
        <time>2011-01-15T10:05:06Z</time>
      </trkpt>
      <trkpt lat="45.54464" lon="6.56675">
        <ele>1745.4108886719</ele>
        <time>2011-01-15T10:05:23Z</time>
      </trkpt>
      <trkpt lat="45.54474" lon="6.56671">
        <ele>1747.8142089844</ele>
        <time>2011-01-15T10:05:42Z</time>
      </trkpt>
      <trkpt lat="45.54484" lon="6.56667">
        <ele>1750.2175292969</ele>
        <time>2011-01-15T10:06:01Z</time>
      </trkpt>
      <trkpt lat="45.54492" lon="6.56665">
        <ele>1752.1398925781</ele>
        <time>2011-01-15T10:06:17Z</time>
      </trkpt>
      <trkpt lat="45.54502" lon="6.56661">
        <ele>1754.5432128906</ele>
        <time>2011-01-15T10:06:36Z</time>
      </trkpt>
      <trkpt lat="45.54512" lon="6.56656">
        <ele>1757.908203125</ele>
        <time>2011-01-15T10:06:55Z</time>
      </trkpt>
      <trkpt lat="45.5452" lon="6.56651">
        <ele>1760.3112792969</ele>
        <time>2011-01-15T10:07:13Z</time>
      </trkpt>
      <trkpt lat="45.54529" lon="6.56648">
        <ele>1762.7145996094</ele>
        <time>2011-01-15T10:07:32Z</time>
      </trkpt>
      <trkpt lat="45.54537" lon="6.56641">
        <ele>1765.1179199219</ele>
        <time>2011-01-15T10:07:50Z</time>
      </trkpt>
      <trkpt lat="45.54536" lon="6.56628">
        <ele>1768.0017089844</ele>
        <time>2011-01-15T10:08:09Z</time>
      </trkpt>
      <trkpt lat="45.5453" lon="6.56614">
        <ele>1770.8857421875</ele>
        <time>2011-01-15T10:08:29Z</time>
      </trkpt>
      <trkpt lat="45.54523" lon="6.56603">
        <ele>1773.2893066406</ele>
        <time>2011-01-15T10:08:47Z</time>
      </trkpt>
      <trkpt lat="45.54516" lon="6.56591">
        <ele>1776.1730957031</ele>
        <time>2011-01-15T10:09:06Z</time>
      </trkpt>
      <trkpt lat="45.54518" lon="6.56581">
        <ele>1778.095703125</ele>
        <time>2011-01-15T10:09:23Z</time>
      </trkpt>
      <trkpt lat="45.54528" lon="6.56576">
        <ele>1781.4602050781</ele>
        <time>2011-01-15T10:09:44Z</time>
      </trkpt>
      <trkpt lat="45.54537" lon="6.56574">
        <ele>1784.3442382812</ele>
        <time>2011-01-15T10:10:02Z</time>
      </trkpt>
      <trkpt lat="45.54548" lon="6.56574">
        <ele>1786.7473144531</ele>
        <time>2011-01-15T10:10:20Z</time>
      </trkpt>
      <trkpt lat="45.54557" lon="6.56566">
        <ele>1789.6315917969</ele>
        <time>2011-01-15T10:10:40Z</time>
      </trkpt>
      <trkpt lat="45.54568" lon="6.56553">
        <ele>1792.99609375</ele>
        <time>2011-01-15T10:11:03Z</time>
      </trkpt>
      <trkpt lat="45.54576" lon="6.56541">
        <ele>1795.3994140625</ele>
        <time>2011-01-15T10:11:24Z</time>
      </trkpt>
      <trkpt lat="45.54584" lon="6.56529">
        <ele>1798.7639160156</ele>
        <time>2011-01-15T10:11:44Z</time>
      </trkpt>
      <trkpt lat="45.54592" lon="6.56522">
        <ele>1801.1672363281</ele>
        <time>2011-01-15T10:12:03Z</time>
      </trkpt>
      <trkpt lat="45.54602" lon="6.56514">
        <ele>1803.5705566406</ele>
        <time>2011-01-15T10:12:24Z</time>
      </trkpt>
      <trkpt lat="45.54609" lon="6.56505">
        <ele>1806.4545898438</ele>
        <time>2011-01-15T10:12:42Z</time>
      </trkpt>
      <trkpt lat="45.54611" lon="6.56489">
        <ele>1807.8967285156</ele>
        <time>2011-01-15T10:13:06Z</time>
      </trkpt>
      <trkpt lat="45.54611" lon="6.5648">
        <ele>1809.3386230469</ele>
        <time>2011-01-15T10:13:23Z</time>
      </trkpt>
      <trkpt lat="45.54614" lon="6.5646">
        <ele>1813.1838378906</ele>
        <time>2011-01-15T10:13:48Z</time>
      </trkpt>
      <trkpt lat="45.54623" lon="6.56465">
        <ele>1816.0676269531</ele>
        <time>2011-01-15T10:14:05Z</time>
      </trkpt>
      <trkpt lat="45.54633" lon="6.56475">
        <ele>1818.9516601562</ele>
        <time>2011-01-15T10:14:24Z</time>
      </trkpt>
      <trkpt lat="45.54644" lon="6.56482">
        <ele>1821.3549804688</ele>
        <time>2011-01-15T10:14:45Z</time>
      </trkpt>
      <trkpt lat="45.54653" lon="6.56488">
        <ele>1823.7583007812</ele>
        <time>2011-01-15T10:15:02Z</time>
      </trkpt>
      <trkpt lat="45.54667" lon="6.56495">
        <ele>1826.1616210938</ele>
        <time>2011-01-15T10:15:26Z</time>
      </trkpt>
      <trkpt lat="45.54679" lon="6.56498">
        <ele>1829.0454101562</ele>
        <time>2011-01-15T10:15:46Z</time>
      </trkpt>
      <trkpt lat="45.54691" lon="6.56494">
        <ele>1831.4487304688</ele>
        <time>2011-01-15T10:16:07Z</time>
      </trkpt>
      <trkpt lat="45.54701" lon="6.56485">
        <ele>1833.8520507812</ele>
        <time>2011-01-15T10:16:26Z</time>
      </trkpt>
      <trkpt lat="45.5471" lon="6.56481">
        <ele>1836.7360839844</ele>
        <time>2011-01-15T10:16:44Z</time>
      </trkpt>
      <trkpt lat="45.5472" lon="6.56476">
        <ele>1839.1394042969</ele>
        <time>2011-01-15T10:17:04Z</time>
      </trkpt>
      <trkpt lat="45.5473" lon="6.5647">
        <ele>1841.5427246094</ele>
        <time>2011-01-15T10:17:24Z</time>
      </trkpt>
      <trkpt lat="45.54741" lon="6.56462">
        <ele>1844.9072265625</ele>
        <time>2011-01-15T10:17:46Z</time>
      </trkpt>
      <trkpt lat="45.54752" lon="6.56458">
        <ele>1847.310546875</ele>
        <time>2011-01-15T10:18:08Z</time>
      </trkpt>
      <trkpt lat="45.54763" lon="6.56455">
        <ele>1850.1945800781</ele>
        <time>2011-01-15T10:18:29Z</time>
      </trkpt>
      <trkpt lat="45.54776" lon="6.56455">
        <ele>1853.0786132812</ele>
        <time>2011-01-15T10:18:51Z</time>
      </trkpt>
      <trkpt lat="45.54789" lon="6.56455">
        <ele>1856.4431152344</ele>
        <time>2011-01-15T10:19:15Z</time>
      </trkpt>
      <trkpt lat="45.548" lon="6.56456">
        <ele>1859.3271484375</ele>
        <time>2011-01-15T10:19:35Z</time>
      </trkpt>
      <trkpt lat="45.54811" lon="6.56457">
        <ele>1861.73046875</ele>
        <time>2011-01-15T10:19:55Z</time>
      </trkpt>
      <trkpt lat="45.54816" lon="6.56454">
        <ele>1864.1335449219</ele>
        <time>2011-01-15T10:20:12Z</time>
      </trkpt>
      <trkpt lat="45.54816" lon="6.5645">
        <ele>1865.0949707031</ele>
        <time>2011-01-15T10:20:51Z</time>
      </trkpt>
      <trkpt lat="45.54811" lon="6.56437">
        <ele>1867.498046875</ele>
        <time>2011-01-15T10:21:08Z</time>
      </trkpt>
      <trkpt lat="45.54805" lon="6.56419">
        <ele>1870.8630371094</ele>
        <time>2011-01-15T10:21:30Z</time>
      </trkpt>
      <trkpt lat="45.54802" lon="6.56405">
        <ele>1873.2663574219</ele>
        <time>2011-01-15T10:21:49Z</time>
      </trkpt>
      <trkpt lat="45.54797" lon="6.56391">
        <ele>1876.630859375</ele>
        <time>2011-01-15T10:22:09Z</time>
      </trkpt>
      <trkpt lat="45.54793" lon="6.56377">
        <ele>1879.5146484375</ele>
        <time>2011-01-15T10:22:29Z</time>
      </trkpt>
      <trkpt lat="45.54795" lon="6.56365">
        <ele>1881.4372558594</ele>
        <time>2011-01-15T10:22:47Z</time>
      </trkpt>
      <trkpt lat="45.54802" lon="6.56366">
        <ele>1883.8405761719</ele>
        <time>2011-01-15T10:23:04Z</time>
      </trkpt>
      <trkpt lat="45.54813" lon="6.56368">
        <ele>1886.724609375</ele>
        <time>2011-01-15T10:23:24Z</time>
      </trkpt>
      <trkpt lat="45.54823" lon="6.56372">
        <ele>1889.6086425781</ele>
        <time>2011-01-15T10:23:46Z</time>
      </trkpt>
      <trkpt lat="45.54827" lon="6.56369">
        <ele>1891.0505371094</ele>
        <time>2011-01-15T10:24:02Z</time>
      </trkpt>
      <trkpt lat="45.54823" lon="6.56355">
        <ele>1892.9731445312</ele>
        <time>2011-01-15T10:24:20Z</time>
      </trkpt>
      <trkpt lat="45.54818" lon="6.5634">
        <ele>1893.9345703125</ele>
        <time>2011-01-15T10:24:40Z</time>
      </trkpt>
      <trkpt lat="45.54815" lon="6.56329">
        <ele>1896.337890625</ele>
        <time>2011-01-15T10:24:57Z</time>
      </trkpt>
      <trkpt lat="45.54813" lon="6.56316">
        <ele>1899.7023925781</ele>
        <time>2011-01-15T10:25:17Z</time>
      </trkpt>
      <trkpt lat="45.54819" lon="6.56318">
        <ele>1901.14453125</ele>
        <time>2011-01-15T10:25:31Z</time>
      </trkpt>
      <trkpt lat="45.54831" lon="6.56325">
        <ele>1904.0285644531</ele>
        <time>2011-01-15T10:25:54Z</time>
      </trkpt>
      <trkpt lat="45.54842" lon="6.5633">
        <ele>1907.3930664062</ele>
        <time>2011-01-15T10:26:17Z</time>
      </trkpt>
      <trkpt lat="45.54852" lon="6.56334">
        <ele>1909.7961425781</ele>
        <time>2011-01-15T10:26:37Z</time>
      </trkpt>
      <trkpt lat="45.54861" lon="6.56338">
        <ele>1912.1994628906</ele>
        <time>2011-01-15T10:26:58Z</time>
      </trkpt>
      <trkpt lat="45.54872" lon="6.56343">
        <ele>1914.6027832031</ele>
        <time>2011-01-15T10:27:19Z</time>
      </trkpt>
      <trkpt lat="45.54873" lon="6.56339">
        <ele>1916.5256347656</ele>
        <time>2011-01-15T10:27:33Z</time>
      </trkpt>
      <trkpt lat="45.5487" lon="6.56324">
        <ele>1919.4096679688</ele>
        <time>2011-01-15T10:27:52Z</time>
      </trkpt>
      <trkpt lat="45.5487" lon="6.56312">
        <ele>1921.8127441406</ele>
        <time>2011-01-15T10:28:09Z</time>
      </trkpt>
      <trkpt lat="45.54872" lon="6.56311">
        <ele>1922.7741699219</ele>
        <time>2011-01-15T10:28:21Z</time>
      </trkpt>
      <trkpt lat="45.54873" lon="6.56313">
        <ele>1923.7353515625</ele>
        <time>2011-01-15T10:29:04Z</time>
      </trkpt>
      <trkpt lat="45.54886" lon="6.56323">
        <ele>1926.6193847656</ele>
        <time>2011-01-15T10:29:28Z</time>
      </trkpt>
      <trkpt lat="45.54895" lon="6.56331">
        <ele>1929.0224609375</ele>
        <time>2011-01-15T10:29:47Z</time>
      </trkpt>
      <trkpt lat="45.54903" lon="6.56335">
        <ele>1931.9064941406</ele>
        <time>2011-01-15T10:30:06Z</time>
      </trkpt>
      <trkpt lat="45.54911" lon="6.56335">
        <ele>1934.3100585938</ele>
        <time>2011-01-15T10:30:22Z</time>
      </trkpt>
      <trkpt lat="45.54913" lon="6.56329">
        <ele>1937.1938476562</ele>
        <time>2011-01-15T10:30:35Z</time>
      </trkpt>
      <trkpt lat="45.54911" lon="6.56316">
        <ele>1939.5971679688</ele>
        <time>2011-01-15T10:30:52Z</time>
      </trkpt>
      <trkpt lat="45.54912" lon="6.56301">
        <ele>1942.4812011719</ele>
        <time>2011-01-15T10:31:11Z</time>
      </trkpt>
      <trkpt lat="45.54917" lon="6.56289">
        <ele>1944.8842773438</ele>
        <time>2011-01-15T10:31:30Z</time>
      </trkpt>
      <trkpt lat="45.54926" lon="6.56291">
        <ele>1946.8068847656</ele>
        <time>2011-01-15T10:31:48Z</time>
      </trkpt>
      <trkpt lat="45.54935" lon="6.56296">
        <ele>1949.2104492188</ele>
        <time>2011-01-15T10:32:08Z</time>
      </trkpt>
      <trkpt lat="45.54944" lon="6.56301">
        <ele>1951.6137695312</ele>
        <time>2011-01-15T10:32:27Z</time>
      </trkpt>
      <trkpt lat="45.54953" lon="6.56305">
        <ele>1954.4975585938</ele>
        <time>2011-01-15T10:32:47Z</time>
      </trkpt>
      <trkpt lat="45.54963" lon="6.56306">
        <ele>1956.9008789062</ele>
        <time>2011-01-15T10:33:07Z</time>
      </trkpt>
      <trkpt lat="45.54974" lon="6.56304">
        <ele>1959.3041992188</ele>
        <time>2011-01-15T10:33:27Z</time>
      </trkpt>
      <trkpt lat="45.54983" lon="6.56302">
        <ele>1961.7075195312</ele>
        <time>2011-01-15T10:33:46Z</time>
      </trkpt>
      <trkpt lat="45.54992" lon="6.563">
        <ele>1963.6298828125</ele>
        <time>2011-01-15T10:34:05Z</time>
      </trkpt>
      <trkpt lat="45.55003" lon="6.56297">
        <ele>1966.0334472656</ele>
        <time>2011-01-15T10:34:26Z</time>
      </trkpt>
      <trkpt lat="45.55012" lon="6.56299">
        <ele>1968.4367675781</ele>
        <time>2011-01-15T10:34:45Z</time>
      </trkpt>
      <trkpt lat="45.55021" lon="6.563">
        <ele>1970.8400878906</ele>
        <time>2011-01-15T10:35:04Z</time>
      </trkpt>
      <trkpt lat="45.55031" lon="6.56298">
        <ele>1973.7238769531</ele>
        <time>2011-01-15T10:35:26Z</time>
      </trkpt>
      <trkpt lat="45.55038" lon="6.56293">
        <ele>1976.1271972656</ele>
        <time>2011-01-15T10:35:43Z</time>
      </trkpt>
      <trkpt lat="45.55048" lon="6.56292">
        <ele>1978.5305175781</ele>
        <time>2011-01-15T10:36:02Z</time>
      </trkpt>
      <trkpt lat="45.5506" lon="6.56298">
        <ele>1981.8952636719</ele>
        <time>2011-01-15T10:36:25Z</time>
      </trkpt>
      <trkpt lat="45.55064" lon="6.56301">
        <ele>1982.8564453125</ele>
        <time>2011-01-15T10:36:40Z</time>
      </trkpt>
      <trkpt lat="45.55063" lon="6.56286">
        <ele>1985.259765625</ele>
        <time>2011-01-15T10:37:00Z</time>
      </trkpt>
      <trkpt lat="45.5506" lon="6.56275">
        <ele>1987.1823730469</ele>
        <time>2011-01-15T10:37:16Z</time>
      </trkpt>
      <trkpt lat="45.55055" lon="6.56262">
        <ele>1988.6245117188</ele>
        <time>2011-01-15T10:37:36Z</time>
      </trkpt>
      <trkpt lat="45.55051" lon="6.56247">
        <ele>1990.546875</ele>
        <time>2011-01-15T10:37:55Z</time>
      </trkpt>
      <trkpt lat="45.55048" lon="6.56237">
        <ele>1992.4697265625</ele>
        <time>2011-01-15T10:38:12Z</time>
      </trkpt>
      <trkpt lat="45.55049" lon="6.56237">
        <ele>1992.4697265625</ele>
        <time>2011-01-15T10:38:26Z</time>
      </trkpt>
      <trkpt lat="45.5505" lon="6.56237">
        <ele>1992.4697265625</ele>
        <time>2011-01-15T10:39:07Z</time>
      </trkpt>
      <trkpt lat="45.55063" lon="6.56244">
        <ele>1995.353515625</ele>
        <time>2011-01-15T10:39:29Z</time>
      </trkpt>
      <trkpt lat="45.55075" lon="6.56251">
        <ele>1998.7182617188</ele>
        <time>2011-01-15T10:39:50Z</time>
      </trkpt>
      <trkpt lat="45.55086" lon="6.56256">
        <ele>2002.0827636719</ele>
        <time>2011-01-15T10:40:13Z</time>
      </trkpt>
      <trkpt lat="45.55095" lon="6.56263">
        <ele>2004.4860839844</ele>
        <time>2011-01-15T10:40:31Z</time>
      </trkpt>
      <trkpt lat="45.55104" lon="6.5627">
        <ele>2007.8508300781</ele>
        <time>2011-01-15T10:40:52Z</time>
      </trkpt>
      <trkpt lat="45.55113" lon="6.56274">
        <ele>2010.25390625</ele>
        <time>2011-01-15T10:41:10Z</time>
      </trkpt>
      <trkpt lat="45.55124" lon="6.56274">
        <ele>2013.6186523438</ele>
        <time>2011-01-15T10:41:30Z</time>
      </trkpt>
      <trkpt lat="45.55126" lon="6.56271">
        <ele>2014.580078125</ele>
        <time>2011-01-15T10:41:47Z</time>
      </trkpt>
      <trkpt lat="45.55126" lon="6.5627">
        <ele>2014.0993652344</ele>
        <time>2011-01-15T10:42:11Z</time>
      </trkpt>
      <trkpt lat="45.55127" lon="6.5627">
        <ele>2013.1381835938</ele>
        <time>2011-01-15T10:42:45Z</time>
      </trkpt>
      <trkpt lat="45.55125" lon="6.56271">
        <ele>2014.580078125</ele>
        <time>2011-01-15T10:51:17Z</time>
      </trkpt>
      <trkpt lat="45.55126" lon="6.5627">
        <ele>2013.6186523438</ele>
        <time>2011-01-15T10:51:40Z</time>
      </trkpt>
      <trkpt lat="45.55126" lon="6.5627">
        <ele>2013.1381835938</ele>
        <time>2011-01-15T10:53:02Z</time>
      </trkpt>
      <trkpt lat="45.55126" lon="6.56271">
        <ele>2012.1767578125</ele>
        <time>2011-01-15T10:53:36Z</time>
      </trkpt>
      <trkpt lat="45.55126" lon="6.56271">
        <ele>2013.6186523438</ele>
        <time>2011-01-15T10:54:02Z</time>
      </trkpt>
      <trkpt lat="45.55126" lon="6.56271">
        <ele>2013.1381835938</ele>
        <time>2011-01-15T10:54:30Z</time>
      </trkpt>
      <trkpt lat="45.55126" lon="6.56272">
        <ele>2013.6186523438</ele>
        <time>2011-01-15T10:55:03Z</time>
      </trkpt>
      <trkpt lat="45.55125" lon="6.56272">
        <ele>2014.0993652344</ele>
        <time>2011-01-15T10:56:07Z</time>
      </trkpt>
      <trkpt lat="45.55125" lon="6.56272">
        <ele>2014.0993652344</ele>
        <time>2011-01-15T10:56:46Z</time>
      </trkpt>
      <trkpt lat="45.55126" lon="6.56272">
        <ele>2013.6186523438</ele>
        <time>2011-01-15T10:57:33Z</time>
      </trkpt>
      <trkpt lat="45.55126" lon="6.56271">
        <ele>2013.1381835938</ele>
        <time>2011-01-15T10:57:47Z</time>
      </trkpt>
      <trkpt lat="45.55132" lon="6.5627">
        <ele>2013.1381835938</ele>
        <time>2011-01-15T10:58:19Z</time>
      </trkpt>
      <trkpt lat="45.55138" lon="6.5627">
        <ele>2014.0993652344</ele>
        <time>2011-01-15T10:58:28Z</time>
      </trkpt>
      <trkpt lat="45.55159" lon="6.56259">
        <ele>2015.0607910156</ele>
        <time>2011-01-15T10:58:51Z</time>
      </trkpt>
      <trkpt lat="45.55172" lon="6.56246">
        <ele>2016.5026855469</ele>
        <time>2011-01-15T10:59:09Z</time>
      </trkpt>
      <trkpt lat="45.5518" lon="6.56233">
        <ele>2017.9445800781</ele>
        <time>2011-01-15T10:59:27Z</time>
      </trkpt>
      <trkpt lat="45.55187" lon="6.56211">
        <ele>2022.2705078125</ele>
        <time>2011-01-15T10:59:50Z</time>
      </trkpt>
      <trkpt lat="45.55197" lon="6.56198">
        <ele>2024.1931152344</ele>
        <time>2011-01-15T11:00:10Z</time>
      </trkpt>
      <trkpt lat="45.55211" lon="6.56191">
        <ele>2026.5964355469</ele>
        <time>2011-01-15T11:00:33Z</time>
      </trkpt>
      <trkpt lat="45.55221" lon="6.56192">
        <ele>2028.9997558594</ele>
        <time>2011-01-15T11:00:50Z</time>
      </trkpt>
      <trkpt lat="45.55232" lon="6.56195">
        <ele>2030.9226074219</ele>
        <time>2011-01-15T11:01:09Z</time>
      </trkpt>
      <trkpt lat="45.55242" lon="6.56198">
        <ele>2032.8449707031</ele>
        <time>2011-01-15T11:01:26Z</time>
      </trkpt>
      <trkpt lat="45.55253" lon="6.56195">
        <ele>2034.7678222656</ele>
        <time>2011-01-15T11:01:43Z</time>
      </trkpt>
      <trkpt lat="45.5526" lon="6.56182">
        <ele>2039.0935058594</ele>
        <time>2011-01-15T11:02:03Z</time>
      </trkpt>
      <trkpt lat="45.55263" lon="6.56161">
        <ele>2042.9387207031</ele>
        <time>2011-01-15T11:02:28Z</time>
      </trkpt>
      <trkpt lat="45.55267" lon="6.56146">
        <ele>2045.3422851562</ele>
        <time>2011-01-15T11:02:45Z</time>
      </trkpt>
      <trkpt lat="45.55275" lon="6.5614">
        <ele>2048.7067871094</ele>
        <time>2011-01-15T11:03:04Z</time>
      </trkpt>
      <trkpt lat="45.55279" lon="6.56151">
        <ele>2051.1101074219</ele>
        <time>2011-01-15T11:03:18Z</time>
      </trkpt>
      <trkpt lat="45.55285" lon="6.56161">
        <ele>2053.0327148438</ele>
        <time>2011-01-15T11:03:34Z</time>
      </trkpt>
      <trkpt lat="45.55292" lon="6.56174">
        <ele>2055.9165039062</ele>
        <time>2011-01-15T11:03:53Z</time>
      </trkpt>
      <trkpt lat="45.55299" lon="6.56181">
        <ele>2059.28125</ele>
        <time>2011-01-15T11:04:09Z</time>
      </trkpt>
      <trkpt lat="45.55305" lon="6.56179">
        <ele>2060.7233886719</ele>
        <time>2011-01-15T11:04:27Z</time>
      </trkpt>
      <trkpt lat="45.55304" lon="6.56178">
        <ele>2060.2426757812</ele>
        <time>2011-01-15T11:04:56Z</time>
      </trkpt>
      <trkpt lat="45.55314" lon="6.56174">
        <ele>2060.7233886719</ele>
        <time>2011-01-15T11:05:20Z</time>
      </trkpt>
      <trkpt lat="45.55323" lon="6.56169">
        <ele>2062.6459960938</ele>
        <time>2011-01-15T11:05:37Z</time>
      </trkpt>
      <trkpt lat="45.55332" lon="6.56164">
        <ele>2064.5686035156</ele>
        <time>2011-01-15T11:05:53Z</time>
      </trkpt>
      <trkpt lat="45.55343" lon="6.56158">
        <ele>2066.9719238281</ele>
        <time>2011-01-15T11:06:13Z</time>
      </trkpt>
      <trkpt lat="45.55356" lon="6.56152">
        <ele>2069.3752441406</ele>
        <time>2011-01-15T11:06:34Z</time>
      </trkpt>
      <trkpt lat="45.55372" lon="6.56153">
        <ele>2070.3364257812</ele>
        <time>2011-01-15T11:06:53Z</time>
      </trkpt>
      <trkpt lat="45.55384" lon="6.56145">
        <ele>2070.3364257812</ele>
        <time>2011-01-15T11:07:11Z</time>
      </trkpt>
      <trkpt lat="45.5538" lon="6.56138">
        <ele>2071.2976074219</ele>
        <time>2011-01-15T11:07:23Z</time>
      </trkpt>
      <trkpt lat="45.55384" lon="6.56123">
        <ele>2073.7009277344</ele>
        <time>2011-01-15T11:07:42Z</time>
      </trkpt>
      <trkpt lat="45.55396" lon="6.56129">
        <ele>2076.1044921875</ele>
        <time>2011-01-15T11:08:02Z</time>
      </trkpt>
      <trkpt lat="45.55407" lon="6.56135">
        <ele>2078.98828125</ele>
        <time>2011-01-15T11:08:23Z</time>
      </trkpt>
      <trkpt lat="45.55418" lon="6.56142">
        <ele>2082.8334960938</ele>
        <time>2011-01-15T11:08:44Z</time>
      </trkpt>
      <trkpt lat="45.55426" lon="6.56149">
        <ele>2086.1982421875</ele>
        <time>2011-01-15T11:09:02Z</time>
      </trkpt>
      <trkpt lat="45.55435" lon="6.56159">
        <ele>2089.08203125</ele>
        <time>2011-01-15T11:09:21Z</time>
      </trkpt>
      <trkpt lat="45.55442" lon="6.56161">
        <ele>2091.4853515625</ele>
        <time>2011-01-15T11:09:37Z</time>
      </trkpt>
      <trkpt lat="45.55448" lon="6.5616">
        <ele>2093.8889160156</ele>
        <time>2011-01-15T11:09:52Z</time>
      </trkpt>
      <trkpt lat="45.55454" lon="6.5616">
        <ele>2095.3308105469</ele>
        <time>2011-01-15T11:10:09Z</time>
      </trkpt>
      <trkpt lat="45.55464" lon="6.56156">
        <ele>2096.7727050781</ele>
        <time>2011-01-15T11:10:25Z</time>
      </trkpt>
      <trkpt lat="45.55472" lon="6.5614">
        <ele>2099.1760253906</ele>
        <time>2011-01-15T11:10:43Z</time>
      </trkpt>
      <trkpt lat="45.5548" lon="6.56119">
        <ele>2100.6179199219</ele>
        <time>2011-01-15T11:11:04Z</time>
      </trkpt>
      <trkpt lat="45.55489" lon="6.56104">
        <ele>2101.0986328125</ele>
        <time>2011-01-15T11:11:22Z</time>
      </trkpt>
      <trkpt lat="45.55504" lon="6.56099">
        <ele>2102.0598144531</ele>
        <time>2011-01-15T11:11:43Z</time>
      </trkpt>
      <trkpt lat="45.55515" lon="6.56096">
        <ele>2103.501953125</ele>
        <time>2011-01-15T11:12:00Z</time>
      </trkpt>
      <trkpt lat="45.55524" lon="6.56082">
        <ele>2104.4631347656</ele>
        <time>2011-01-15T11:12:18Z</time>
      </trkpt>
      <trkpt lat="45.55532" lon="6.56072">
        <ele>2106.3857421875</ele>
        <time>2011-01-15T11:12:35Z</time>
      </trkpt>
      <trkpt lat="45.55546" lon="6.56073">
        <ele>2109.7504882812</ele>
        <time>2011-01-15T11:12:58Z</time>
      </trkpt>
      <trkpt lat="45.55557" lon="6.56075">
        <ele>2110.7119140625</ele>
        <time>2011-01-15T11:13:20Z</time>
      </trkpt>
      <trkpt lat="45.55564" lon="6.56078">
        <ele>2113.595703125</ele>
        <time>2011-01-15T11:13:38Z</time>
      </trkpt>
      <trkpt lat="45.55574" lon="6.56082">
        <ele>2115.9990234375</ele>
        <time>2011-01-15T11:13:58Z</time>
      </trkpt>
      <trkpt lat="45.55582" lon="6.56086">
        <ele>2118.8830566406</ele>
        <time>2011-01-15T11:14:16Z</time>
      </trkpt>
      <trkpt lat="45.5559" lon="6.5609">
        <ele>2120.8056640625</ele>
        <time>2011-01-15T11:14:35Z</time>
      </trkpt>
      <trkpt lat="45.55597" lon="6.56095">
        <ele>2123.208984375</ele>
        <time>2011-01-15T11:14:51Z</time>
      </trkpt>
      <trkpt lat="45.55603" lon="6.56098">
        <ele>2125.6123046875</ele>
        <time>2011-01-15T11:15:09Z</time>
      </trkpt>
      <trkpt lat="45.55609" lon="6.56104">
        <ele>2128.9768066406</ele>
        <time>2011-01-15T11:15:45Z</time>
      </trkpt>
      <trkpt lat="45.55617" lon="6.56109">
        <ele>2131.8608398438</ele>
        <time>2011-01-15T11:16:02Z</time>
      </trkpt>
      <trkpt lat="45.55624" lon="6.56115">
        <ele>2134.2641601562</ele>
        <time>2011-01-15T11:16:19Z</time>
      </trkpt>
      <trkpt lat="45.55634" lon="6.56122">
        <ele>2137.1479492188</ele>
        <time>2011-01-15T11:16:41Z</time>
      </trkpt>
      <trkpt lat="45.55642" lon="6.56123">
        <ele>2139.5512695312</ele>
        <time>2011-01-15T11:16:58Z</time>
      </trkpt>
      <trkpt lat="45.55644" lon="6.56104">
        <ele>2143.8774414062</ele>
        <time>2011-01-15T11:17:22Z</time>
      </trkpt>
      <trkpt lat="45.55645" lon="6.56091">
        <ele>2146.2807617188</ele>
        <time>2011-01-15T11:17:38Z</time>
      </trkpt>
      <trkpt lat="45.55645" lon="6.56075">
        <ele>2148.6838378906</ele>
        <time>2011-01-15T11:18:00Z</time>
      </trkpt>
      <trkpt lat="45.55648" lon="6.56062">
        <ele>2153.9711914062</ele>
        <time>2011-01-15T11:18:19Z</time>
      </trkpt>
      <trkpt lat="45.55657" lon="6.56056">
        <ele>2156.3745117188</ele>
        <time>2011-01-15T11:18:36Z</time>
      </trkpt>
      <trkpt lat="45.55669" lon="6.56059">
        <ele>2156.3745117188</ele>
        <time>2011-01-15T11:18:58Z</time>
      </trkpt>
      <trkpt lat="45.55682" lon="6.56068">
        <ele>2159.2585449219</ele>
        <time>2011-01-15T11:19:21Z</time>
      </trkpt>
      <trkpt lat="45.55694" lon="6.56072">
        <ele>2161.6618652344</ele>
        <time>2011-01-15T11:19:41Z</time>
      </trkpt>
      <trkpt lat="45.55703" lon="6.56075">
        <ele>2163.1037597656</ele>
        <time>2011-01-15T11:19:56Z</time>
      </trkpt>
      <trkpt lat="45.55716" lon="6.56081">
        <ele>2164.5456542969</ele>
        <time>2011-01-15T11:20:16Z</time>
      </trkpt>
      <trkpt lat="45.55733" lon="6.56087">
        <ele>2166.4682617188</ele>
        <time>2011-01-15T11:20:39Z</time>
      </trkpt>
      <trkpt lat="45.55746" lon="6.56091">
        <ele>2168.8715820312</ele>
        <time>2011-01-15T11:20:58Z</time>
      </trkpt>
      <trkpt lat="45.55765" lon="6.56098">
        <ele>2170.7941894531</ele>
        <time>2011-01-15T11:21:23Z</time>
      </trkpt>
      <trkpt lat="45.5578" lon="6.56103">
        <ele>2173.1977539062</ele>
        <time>2011-01-15T11:21:44Z</time>
      </trkpt>
      <trkpt lat="45.55793" lon="6.5611">
        <ele>2175.6008300781</ele>
        <time>2011-01-15T11:22:05Z</time>
      </trkpt>
      <trkpt lat="45.55804" lon="6.56115">
        <ele>2178.4848632812</ele>
        <time>2011-01-15T11:22:27Z</time>
      </trkpt>
      <trkpt lat="45.55816" lon="6.56121">
        <ele>2181.8493652344</ele>
        <time>2011-01-15T11:22:53Z</time>
      </trkpt>
      <trkpt lat="45.55826" lon="6.56126">
        <ele>2184.7333984375</ele>
        <time>2011-01-15T11:23:14Z</time>
      </trkpt>
      <trkpt lat="45.55834" lon="6.56129">
        <ele>2186.6557617188</ele>
        <time>2011-01-15T11:23:31Z</time>
      </trkpt>
      <trkpt lat="45.55842" lon="6.56132">
        <ele>2189.5400390625</ele>
        <time>2011-01-15T11:23:48Z</time>
      </trkpt>
      <trkpt lat="45.55848" lon="6.56124">
        <ele>2192.4240722656</ele>
        <time>2011-01-15T11:24:05Z</time>
      </trkpt>
      <trkpt lat="45.55853" lon="6.56111">
        <ele>2196.2692871094</ele>
        <time>2011-01-15T11:24:26Z</time>
      </trkpt>
      <trkpt lat="45.5586" lon="6.56107">
        <ele>2199.1530761719</ele>
        <time>2011-01-15T11:24:46Z</time>
      </trkpt>
      <trkpt lat="45.55868" lon="6.56116">
        <ele>2202.0368652344</ele>
        <time>2011-01-15T11:25:04Z</time>
      </trkpt>
      <trkpt lat="45.55878" lon="6.56129">
        <ele>2205.4018554688</ele>
        <time>2011-01-15T11:25:27Z</time>
      </trkpt>
      <trkpt lat="45.55883" lon="6.56144">
        <ele>2209.7275390625</ele>
        <time>2011-01-15T11:25:49Z</time>
      </trkpt>
      <trkpt lat="45.5589" lon="6.5615">
        <ele>2211.650390625</ele>
        <time>2011-01-15T11:26:06Z</time>
      </trkpt>
      <trkpt lat="45.559" lon="6.56155">
        <ele>2213.0922851562</ele>
        <time>2011-01-15T11:26:23Z</time>
      </trkpt>
      <trkpt lat="45.55911" lon="6.56159">
        <ele>2214.5341796875</ele>
        <time>2011-01-15T11:26:45Z</time>
      </trkpt>
      <trkpt lat="45.55919" lon="6.56168">
        <ele>2217.41796875</ele>
        <time>2011-01-15T11:27:03Z</time>
      </trkpt>
      <trkpt lat="45.55926" lon="6.56172">
        <ele>2219.8212890625</ele>
        <time>2011-01-15T11:27:18Z</time>
      </trkpt>
      <trkpt lat="45.55939" lon="6.56173">
        <ele>2222.7055664062</ele>
        <time>2011-01-15T11:27:40Z</time>
      </trkpt>
      <trkpt lat="45.5595" lon="6.56176">
        <ele>2223.6667480469</ele>
        <time>2011-01-15T11:27:58Z</time>
      </trkpt>
      <trkpt lat="45.55959" lon="6.56181">
        <ele>2226.0700683594</ele>
        <time>2011-01-15T11:28:17Z</time>
      </trkpt>
      <trkpt lat="45.55965" lon="6.56184">
        <ele>2228.4733886719</ele>
        <time>2011-01-15T11:28:31Z</time>
      </trkpt>
      <trkpt lat="45.55972" lon="6.56185">
        <ele>2230.3959960938</ele>
        <time>2011-01-15T11:28:46Z</time>
      </trkpt>
      <trkpt lat="45.55977" lon="6.56173">
        <ele>2234.7219238281</ele>
        <time>2011-01-15T11:29:05Z</time>
      </trkpt>
      <trkpt lat="45.55978" lon="6.56159">
        <ele>2237.6059570312</ele>
        <time>2011-01-15T11:29:24Z</time>
      </trkpt>
      <trkpt lat="45.55979" lon="6.56156">
        <ele>2238.5673828125</ele>
        <time>2011-01-15T11:29:37Z</time>
      </trkpt>
      <trkpt lat="45.55986" lon="6.56165">
        <ele>2241.451171875</ele>
        <time>2011-01-15T11:29:55Z</time>
      </trkpt>
      <trkpt lat="45.55995" lon="6.56177">
        <ele>2245.2963867188</ele>
        <time>2011-01-15T11:30:16Z</time>
      </trkpt>
      <trkpt lat="45.56002" lon="6.56188">
        <ele>2248.6608886719</ele>
        <time>2011-01-15T11:30:36Z</time>
      </trkpt>
      <trkpt lat="45.56008" lon="6.56198">
        <ele>2252.0256347656</ele>
        <time>2011-01-15T11:30:54Z</time>
      </trkpt>
      <trkpt lat="45.56008" lon="6.56195">
        <ele>2253.4677734375</ele>
        <time>2011-01-15T11:31:06Z</time>
      </trkpt>
      <trkpt lat="45.56007" lon="6.56176">
        <ele>2255.8708496094</ele>
        <time>2011-01-15T11:31:26Z</time>
      </trkpt>
      <trkpt lat="45.56007" lon="6.56156">
        <ele>2257.3129882812</ele>
        <time>2011-01-15T11:31:47Z</time>
      </trkpt>
      <trkpt lat="45.5601" lon="6.5614">
        <ele>2260.1967773438</ele>
        <time>2011-01-15T11:32:05Z</time>
      </trkpt>
      <trkpt lat="45.56012" lon="6.56142">
        <ele>2261.158203125</ele>
        <time>2011-01-15T11:32:18Z</time>
      </trkpt>
      <trkpt lat="45.56017" lon="6.56156">
        <ele>2265.4841308594</ele>
        <time>2011-01-15T11:32:38Z</time>
      </trkpt>
      <trkpt lat="45.56019" lon="6.56149">
        <ele>2267.4064941406</ele>
        <time>2011-01-15T11:32:54Z</time>
      </trkpt>
      <trkpt lat="45.56024" lon="6.5614">
        <ele>2269.3295898438</ele>
        <time>2011-01-15T11:33:11Z</time>
      </trkpt>
      <trkpt lat="45.56025" lon="6.56145">
        <ele>2270.2907714844</ele>
        <time>2011-01-15T11:33:24Z</time>
      </trkpt>
      <trkpt lat="45.56026" lon="6.56149">
        <ele>2270.771484375</ele>
        <time>2011-01-15T11:33:40Z</time>
      </trkpt>
      <trkpt lat="45.56029" lon="6.56153">
        <ele>2271.7326660156</ele>
        <time>2011-01-15T11:33:57Z</time>
      </trkpt>
      <trkpt lat="45.56034" lon="6.56162">
        <ele>2275.0971679688</ele>
        <time>2011-01-15T11:34:16Z</time>
      </trkpt>
      <trkpt lat="45.56044" lon="6.5617">
        <ele>2278.4619140625</ele>
        <time>2011-01-15T11:34:35Z</time>
      </trkpt>
      <trkpt lat="45.56047" lon="6.56178">
        <ele>2281.345703125</ele>
        <time>2011-01-15T11:34:50Z</time>
      </trkpt>
      <trkpt lat="45.56052" lon="6.56188">
        <ele>2284.7106933594</ele>
        <time>2011-01-15T11:35:11Z</time>
      </trkpt>
      <trkpt lat="45.56052" lon="6.56188">
        <ele>2285.1911621094</ele>
        <time>2011-01-15T11:35:28Z</time>
      </trkpt>
      <trkpt lat="45.56057" lon="6.56181">
        <ele>2287.1137695312</ele>
        <time>2011-01-15T11:35:46Z</time>
      </trkpt>
      <trkpt lat="45.56061" lon="6.56192">
        <ele>2289.9978027344</ele>
        <time>2011-01-15T11:36:02Z</time>
      </trkpt>
      <trkpt lat="45.56063" lon="6.56197">
        <ele>2292.4011230469</ele>
        <time>2011-01-15T11:36:17Z</time>
      </trkpt>
      <trkpt lat="45.56069" lon="6.562">
        <ele>2294.8041992188</ele>
        <time>2011-01-15T11:36:31Z</time>
      </trkpt>
      <trkpt lat="45.56073" lon="6.56205">
        <ele>2297.2075195312</ele>
        <time>2011-01-15T11:36:44Z</time>
      </trkpt>
      <trkpt lat="45.56079" lon="6.5621">
        <ele>2299.6108398438</ele>
        <time>2011-01-15T11:36:58Z</time>
      </trkpt>
      <trkpt lat="45.56084" lon="6.56214">
        <ele>2301.5336914062</ele>
        <time>2011-01-15T11:37:12Z</time>
      </trkpt>
      <trkpt lat="45.56093" lon="6.56221">
        <ele>2305.37890625</ele>
        <time>2011-01-15T11:37:32Z</time>
      </trkpt>
      <trkpt lat="45.56091" lon="6.56224">
        <ele>2306.3400878906</ele>
        <time>2011-01-15T11:37:46Z</time>
      </trkpt>
      <trkpt lat="45.56087" lon="6.56225">
        <ele>2305.859375</ele>
        <time>2011-01-15T11:38:02Z</time>
      </trkpt>
      <trkpt lat="45.56087" lon="6.56225">
        <ele>2305.859375</ele>
        <time>2011-01-15T11:38:20Z</time>
      </trkpt>
      <trkpt lat="45.56087" lon="6.56224">
        <ele>2305.37890625</ele>
        <time>2011-01-15T11:38:41Z</time>
      </trkpt>
      <trkpt lat="45.56087" lon="6.56224">
        <ele>2304.8981933594</ele>
        <time>2011-01-15T11:39:07Z</time>
      </trkpt>
      <trkpt lat="45.56086" lon="6.56223">
        <ele>2303.9370117188</ele>
        <time>2011-01-15T11:39:35Z</time>
      </trkpt>
      <trkpt lat="45.56086" lon="6.56223">
        <ele>2303.9370117188</ele>
        <time>2011-01-15T11:40:06Z</time>
      </trkpt>
      <trkpt lat="45.56087" lon="6.56227">
        <ele>2303.9370117188</ele>
        <time>2011-01-15T11:40:18Z</time>
      </trkpt>
      <trkpt lat="45.56087" lon="6.56226">
        <ele>2302.9755859375</ele>
        <time>2011-01-15T11:40:32Z</time>
      </trkpt>
      <trkpt lat="45.56088" lon="6.56226">
        <ele>2304.4174804688</ele>
        <time>2011-01-15T11:41:45Z</time>
      </trkpt>
      <trkpt lat="45.56088" lon="6.56226">
        <ele>2303.9370117188</ele>
        <time>2011-01-15T11:43:28Z</time>
      </trkpt>
      <trkpt lat="45.56089" lon="6.56226">
        <ele>2304.4174804688</ele>
        <time>2011-01-15T11:44:44Z</time>
      </trkpt>
      <trkpt lat="45.56087" lon="6.56227">
        <ele>2304.8981933594</ele>
        <time>2011-01-15T11:49:08Z</time>
      </trkpt>
      <trkpt lat="45.56088" lon="6.56228">
        <ele>2307.3015136719</ele>
        <time>2011-01-15T11:50:25Z</time>
      </trkpt>
      <trkpt lat="45.56088" lon="6.56227">
        <ele>2304.4174804688</ele>
        <time>2011-01-15T11:52:26Z</time>
      </trkpt>
      <trkpt lat="45.56088" lon="6.56227">
        <ele>2302.0141601562</ele>
        <time>2011-01-15T11:54:58Z</time>
      </trkpt>
      <trkpt lat="45.56088" lon="6.56227">
        <ele>2302.9755859375</ele>
        <time>2011-01-15T11:57:04Z</time>
      </trkpt>
      <trkpt lat="45.56087" lon="6.56229">
        <ele>2305.859375</ele>
        <time>2011-01-15T12:00:39Z</time>
      </trkpt>
      <trkpt lat="45.56088" lon="6.56228">
        <ele>2303.9370117188</ele>
        <time>2011-01-15T12:02:13Z</time>
      </trkpt>
      <trkpt lat="45.56087" lon="6.56229">
        <ele>2304.4174804688</ele>
        <time>2011-01-15T12:02:39Z</time>
      </trkpt>
      <trkpt lat="45.56086" lon="6.56229">
        <ele>2304.8981933594</ele>
        <time>2011-01-15T12:02:58Z</time>
      </trkpt>
      <trkpt lat="45.56086" lon="6.56229">
        <ele>2305.859375</ele>
        <time>2011-01-15T12:03:46Z</time>
      </trkpt>
      <trkpt lat="45.56086" lon="6.56229">
        <ele>2306.3400878906</ele>
        <time>2011-01-15T12:04:34Z</time>
      </trkpt>
      <trkpt lat="45.56085" lon="6.5623">
        <ele>2307.3015136719</ele>
        <time>2011-01-15T12:06:10Z</time>
      </trkpt>
      <trkpt lat="45.56085" lon="6.56229">
        <ele>2306.8208007812</ele>
        <time>2011-01-15T12:06:55Z</time>
      </trkpt>
      <trkpt lat="45.56085" lon="6.56229">
        <ele>2305.859375</ele>
        <time>2011-01-15T12:07:48Z</time>
      </trkpt>
      <trkpt lat="45.56085" lon="6.56229">
        <ele>2305.859375</ele>
        <time>2011-01-15T12:08:24Z</time>
      </trkpt>
      <trkpt lat="45.56085" lon="6.56229">
        <ele>2304.4174804688</ele>
        <time>2011-01-15T12:09:31Z</time>
      </trkpt>
      <trkpt lat="45.56085" lon="6.56231">
        <ele>2304.4174804688</ele>
        <time>2011-01-15T12:09:40Z</time>
      </trkpt>
      <trkpt lat="45.56081" lon="6.5623">
        <ele>2302.9755859375</ele>
        <time>2011-01-15T12:09:46Z</time>
      </trkpt>
      <trkpt lat="45.56077" lon="6.56238">
        <ele>2301.0529785156</ele>
        <time>2011-01-15T12:09:54Z</time>
      </trkpt>
      <trkpt lat="45.56078" lon="6.56237">
        <ele>2299.6108398438</ele>
        <time>2011-01-15T12:10:31Z</time>
      </trkpt>
      <trkpt lat="45.56077" lon="6.56237">
        <ele>2298.1687011719</ele>
        <time>2011-01-15T12:11:27Z</time>
      </trkpt>
      <trkpt lat="45.56077" lon="6.56237">
        <ele>2299.1301269531</ele>
        <time>2011-01-15T12:12:05Z</time>
      </trkpt>
      <trkpt lat="45.56078" lon="6.56234">
        <ele>2298.6494140625</ele>
        <time>2011-01-15T12:12:49Z</time>
      </trkpt>
      <trkpt lat="45.56077" lon="6.56236">
        <ele>2297.2075195312</ele>
        <time>2011-01-15T12:13:23Z</time>
      </trkpt>
      <trkpt lat="45.56076" lon="6.56237">
        <ele>2297.2075195312</ele>
        <time>2011-01-15T12:13:46Z</time>
      </trkpt>
      <trkpt lat="45.56065" lon="6.56288">
        <ele>2288.0751953125</ele>
        <time>2011-01-15T12:13:59Z</time>
      </trkpt>
      <trkpt lat="45.56054" lon="6.56313">
        <ele>2285.1911621094</ele>
        <time>2011-01-15T12:14:03Z</time>
      </trkpt>
      <trkpt lat="45.56049" lon="6.56316">
        <ele>2284.7106933594</ele>
        <time>2011-01-15T12:14:12Z</time>
      </trkpt>
      <trkpt lat="45.56036" lon="6.56307">
        <ele>2279.4230957031</ele>
        <time>2011-01-15T12:14:19Z</time>
      </trkpt>
      <trkpt lat="45.56026" lon="6.56297">
        <ele>2274.1359863281</ele>
        <time>2011-01-15T12:14:24Z</time>
      </trkpt>
      <trkpt lat="45.56018" lon="6.56284">
        <ele>2267.4064941406</ele>
        <time>2011-01-15T12:14:29Z</time>
      </trkpt>
      <trkpt lat="45.56009" lon="6.56272">
        <ele>2261.6389160156</ele>
        <time>2011-01-15T12:14:34Z</time>
      </trkpt>
      <trkpt lat="45.56009" lon="6.56265">
        <ele>2260.1967773438</ele>
        <time>2011-01-15T12:14:36Z</time>
      </trkpt>
      <trkpt lat="45.56003" lon="6.5626">
        <ele>2257.3129882812</ele>
        <time>2011-01-15T12:14:39Z</time>
      </trkpt>
      <trkpt lat="45.55983" lon="6.56248">
        <ele>2246.73828125</ele>
        <time>2011-01-15T12:14:46Z</time>
      </trkpt>
      <trkpt lat="45.55963" lon="6.56239">
        <ele>2236.64453125</ele>
        <time>2011-01-15T12:14:52Z</time>
      </trkpt>
      <trkpt lat="45.55963" lon="6.56233">
        <ele>2234.7219238281</ele>
        <time>2011-01-15T12:14:57Z</time>
      </trkpt>
      <trkpt lat="45.55964" lon="6.56232">
        <ele>2234.7219238281</ele>
        <time>2011-01-15T12:15:13Z</time>
      </trkpt>
      <trkpt lat="45.55964" lon="6.56232">
        <ele>2232.7990722656</ele>
        <time>2011-01-15T12:15:28Z</time>
      </trkpt>
      <trkpt lat="45.55965" lon="6.56233">
        <ele>2232.3186035156</ele>
        <time>2011-01-15T12:15:46Z</time>
      </trkpt>
      <trkpt lat="45.55966" lon="6.56233">
        <ele>2233.7604980469</ele>
        <time>2011-01-15T12:16:15Z</time>
      </trkpt>
      <trkpt lat="45.55966" lon="6.56234">
        <ele>2231.837890625</ele>
        <time>2011-01-15T12:17:48Z</time>
      </trkpt>
      <trkpt lat="45.55964" lon="6.56234">
        <ele>2231.837890625</ele>
        <time>2011-01-15T12:37:26Z</time>
      </trkpt>
      <trkpt lat="45.55965" lon="6.56235">
        <ele>2232.3186035156</ele>
        <time>2011-01-15T12:39:57Z</time>
      </trkpt>
      <trkpt lat="45.55965" lon="6.56234">
        <ele>2232.7990722656</ele>
        <time>2011-01-15T12:41:05Z</time>
      </trkpt>
      <trkpt lat="45.55964" lon="6.56232">
        <ele>2232.3186035156</ele>
        <time>2011-01-15T12:41:29Z</time>
      </trkpt>
      <trkpt lat="45.55964" lon="6.5623">
        <ele>2233.2797851562</ele>
        <time>2011-01-15T12:42:02Z</time>
      </trkpt>
      <trkpt lat="45.55964" lon="6.5623">
        <ele>2233.7604980469</ele>
        <time>2011-01-15T12:42:24Z</time>
      </trkpt>
      <trkpt lat="45.55964" lon="6.5623">
        <ele>2234.2412109375</ele>
        <time>2011-01-15T12:42:50Z</time>
      </trkpt>
      <trkpt lat="45.55964" lon="6.56229">
        <ele>2233.2797851562</ele>
        <time>2011-01-15T12:43:12Z</time>
      </trkpt>
      <trkpt lat="45.55966" lon="6.5623">
        <ele>2236.1640625</ele>
        <time>2011-01-15T12:44:20Z</time>
      </trkpt>
      <trkpt lat="45.55965" lon="6.56232">
        <ele>2235.6831054688</ele>
        <time>2011-01-15T12:44:50Z</time>
      </trkpt>
      <trkpt lat="45.55965" lon="6.56232">
        <ele>2235.2023925781</ele>
        <time>2011-01-15T12:46:12Z</time>
      </trkpt>
      <trkpt lat="45.55965" lon="6.56233">
        <ele>2235.2023925781</ele>
        <time>2011-01-15T12:46:38Z</time>
      </trkpt>
      <trkpt lat="45.55964" lon="6.56234">
        <ele>2233.7604980469</ele>
        <time>2011-01-15T12:46:59Z</time>
      </trkpt>
      <trkpt lat="45.55956" lon="6.56231">
        <ele>2231.3571777344</ele>
        <time>2011-01-15T12:47:03Z</time>
      </trkpt>
      <trkpt lat="45.55954" lon="6.56224">
        <ele>2229.9152832031</ele>
        <time>2011-01-15T12:47:05Z</time>
      </trkpt>
      <trkpt lat="45.55932" lon="6.56216">
        <ele>2223.6667480469</ele>
        <time>2011-01-15T12:47:12Z</time>
      </trkpt>
      <trkpt lat="45.55911" lon="6.56214">
        <ele>2215.9760742188</ele>
        <time>2011-01-15T12:47:18Z</time>
      </trkpt>
      <trkpt lat="45.55898" lon="6.56227">
        <ele>2211.650390625</ele>
        <time>2011-01-15T12:47:25Z</time>
      </trkpt>
      <trkpt lat="45.55894" lon="6.5622">
        <ele>2211.1696777344</ele>
        <time>2011-01-15T12:47:27Z</time>
      </trkpt>
      <trkpt lat="45.55889" lon="6.56212">
        <ele>2210.2082519531</ele>
        <time>2011-01-15T12:47:29Z</time>
      </trkpt>
      <trkpt lat="45.55881" lon="6.56218">
        <ele>2208.2856445312</ele>
        <time>2011-01-15T12:47:36Z</time>
      </trkpt>
      <trkpt lat="45.55881" lon="6.56219">
        <ele>2207.8051757812</ele>
        <time>2011-01-15T12:47:37Z</time>
      </trkpt>
      <trkpt lat="45.55859" lon="6.56218">
        <ele>2202.517578125</ele>
        <time>2011-01-15T12:47:47Z</time>
      </trkpt>
      <trkpt lat="45.55845" lon="6.56219">
        <ele>2197.7111816406</ele>
        <time>2011-01-15T12:47:52Z</time>
      </trkpt>
      <trkpt lat="45.5584" lon="6.56213">
        <ele>2197.23046875</ele>
        <time>2011-01-15T12:47:54Z</time>
      </trkpt>
      <trkpt lat="45.55836" lon="6.56197">
        <ele>2196.2692871094</ele>
        <time>2011-01-15T12:48:06Z</time>
      </trkpt>
      <trkpt lat="45.55834" lon="6.56193">
        <ele>2195.3078613281</ele>
        <time>2011-01-15T12:48:09Z</time>
      </trkpt>
      <trkpt lat="45.5583" lon="6.56196">
        <ele>2193.8659667969</ele>
        <time>2011-01-15T12:48:18Z</time>
      </trkpt>
      <trkpt lat="45.5583" lon="6.56197">
        <ele>2192.9045410156</ele>
        <time>2011-01-15T12:48:53Z</time>
      </trkpt>
      <trkpt lat="45.55821" lon="6.56182">
        <ele>2189.5400390625</ele>
        <time>2011-01-15T12:49:00Z</time>
      </trkpt>
      <trkpt lat="45.55813" lon="6.56175">
        <ele>2187.1364746094</ele>
        <time>2011-01-15T12:49:03Z</time>
      </trkpt>
      <trkpt lat="45.55806" lon="6.56113">
        <ele>2180.4074707031</ele>
        <time>2011-01-15T12:49:14Z</time>
      </trkpt>
      <trkpt lat="45.55786" lon="6.56106">
        <ele>2176.0815429688</ele>
        <time>2011-01-15T12:49:20Z</time>
      </trkpt>
      <trkpt lat="45.55777" lon="6.56097">
        <ele>2173.6782226562</ele>
        <time>2011-01-15T12:49:23Z</time>
      </trkpt>
      <trkpt lat="45.55765" lon="6.56072">
        <ele>2170.7941894531</ele>
        <time>2011-01-15T12:49:27Z</time>
      </trkpt>
      <trkpt lat="45.5576" lon="6.56059">
        <ele>2169.3522949219</ele>
        <time>2011-01-15T12:49:29Z</time>
      </trkpt>
      <trkpt lat="45.55728" lon="6.56035">
        <ele>2165.5070800781</ele>
        <time>2011-01-15T12:49:39Z</time>
      </trkpt>
      <trkpt lat="45.557" lon="6.56071">
        <ele>2162.1423339844</ele>
        <time>2011-01-15T12:49:47Z</time>
      </trkpt>
      <trkpt lat="45.55683" lon="6.56079">
        <ele>2160.7004394531</ele>
        <time>2011-01-15T12:49:54Z</time>
      </trkpt>
      <trkpt lat="45.55678" lon="6.56073">
        <ele>2159.2585449219</ele>
        <time>2011-01-15T12:50:01Z</time>
      </trkpt>
      <trkpt lat="45.55673" lon="6.56063">
        <ele>2157.3359375</ele>
        <time>2011-01-15T12:50:14Z</time>
      </trkpt>
      <trkpt lat="45.55655" lon="6.56049">
        <ele>2153.009765625</ele>
        <time>2011-01-15T12:50:21Z</time>
      </trkpt>
      <trkpt lat="45.55643" lon="6.56046">
        <ele>2148.6838378906</ele>
        <time>2011-01-15T12:50:28Z</time>
      </trkpt>
      <trkpt lat="45.55634" lon="6.56054">
        <ele>2146.2807617188</ele>
        <time>2011-01-15T12:50:34Z</time>
      </trkpt>
      <trkpt lat="45.55623" lon="6.56059">
        <ele>2141.4741210938</ele>
        <time>2011-01-15T12:50:40Z</time>
      </trkpt>
      <trkpt lat="45.55622" lon="6.56061">
        <ele>2140.5126953125</ele>
        <time>2011-01-15T12:50:41Z</time>
      </trkpt>
      <trkpt lat="45.55608" lon="6.56072">
        <ele>2133.7834472656</ele>
        <time>2011-01-15T12:50:49Z</time>
      </trkpt>
      <trkpt lat="45.556" lon="6.56077">
        <ele>2128.4963378906</ele>
        <time>2011-01-15T12:50:54Z</time>
      </trkpt>
      <trkpt lat="45.55592" lon="6.56089">
        <ele>2122.2475585938</ele>
        <time>2011-01-15T12:51:00Z</time>
      </trkpt>
      <trkpt lat="45.55585" lon="6.56092">
        <ele>2118.8830566406</ele>
        <time>2011-01-15T12:51:03Z</time>
      </trkpt>
      <trkpt lat="45.5555" lon="6.56059">
        <ele>2113.595703125</ele>
        <time>2011-01-15T12:51:18Z</time>
      </trkpt>
      <trkpt lat="45.55541" lon="6.56067">
        <ele>2110.2312011719</ele>
        <time>2011-01-15T12:51:24Z</time>
      </trkpt>
      <trkpt lat="45.55523" lon="6.56107">
        <ele>2108.30859375</ele>
        <time>2011-01-15T12:51:26Z</time>
      </trkpt>
      <trkpt lat="45.55504" lon="6.56098">
        <ele>2107.8278808594</ele>
        <time>2011-01-15T12:51:36Z</time>
      </trkpt>
      <trkpt lat="45.55504" lon="6.56098">
        <ele>2109.2700195312</ele>
        <time>2011-01-15T12:52:03Z</time>
      </trkpt>
      <trkpt lat="45.55504" lon="6.56098">
        <ele>2111.1926269531</ele>
        <time>2011-01-15T12:52:26Z</time>
      </trkpt>
      <trkpt lat="45.55504" lon="6.56098">
        <ele>2111.1926269531</ele>
        <time>2011-01-15T12:52:44Z</time>
      </trkpt>
      <trkpt lat="45.55504" lon="6.56098">
        <ele>2109.7504882812</ele>
        <time>2011-01-15T12:53:20Z</time>
      </trkpt>
      <trkpt lat="45.55504" lon="6.56098">
        <ele>2109.2700195312</ele>
        <time>2011-01-15T12:53:39Z</time>
      </trkpt>
      <trkpt lat="45.55504" lon="6.56098">
        <ele>2109.2700195312</ele>
        <time>2011-01-15T12:53:55Z</time>
      </trkpt>
      <trkpt lat="45.55507" lon="6.56084">
        <ele>2108.30859375</ele>
        <time>2011-01-15T12:53:59Z</time>
      </trkpt>
      <trkpt lat="45.55491" lon="6.56091">
        <ele>2103.9826660156</ele>
        <time>2011-01-15T12:54:04Z</time>
      </trkpt>
      <trkpt lat="45.55474" lon="6.56127">
        <ele>2103.0212402344</ele>
        <time>2011-01-15T12:54:09Z</time>
      </trkpt>
      <trkpt lat="45.55463" lon="6.56151">
        <ele>2100.1374511719</ele>
        <time>2011-01-15T12:54:17Z</time>
      </trkpt>
      <trkpt lat="45.55452" lon="6.56147">
        <ele>2097.7341308594</ele>
        <time>2011-01-15T12:54:22Z</time>
      </trkpt>
      <trkpt lat="45.55444" lon="6.56135">
        <ele>2096.2922363281</ele>
        <time>2011-01-15T12:54:26Z</time>
      </trkpt>
      <trkpt lat="45.55426" lon="6.56141">
        <ele>2090.5239257812</ele>
        <time>2011-01-15T12:54:33Z</time>
      </trkpt>
      <trkpt lat="45.55415" lon="6.56147">
        <ele>2082.3530273438</ele>
        <time>2011-01-15T12:54:39Z</time>
      </trkpt>
      <trkpt lat="45.55413" lon="6.56143">
        <ele>2081.8723144531</ele>
        <time>2011-01-15T12:54:40Z</time>
      </trkpt>
      <trkpt lat="45.55395" lon="6.56119">
        <ele>2078.0270996094</ele>
        <time>2011-01-15T12:54:46Z</time>
      </trkpt>
      <trkpt lat="45.5538" lon="6.56137">
        <ele>2072.2590332031</ele>
        <time>2011-01-15T12:54:52Z</time>
      </trkpt>
      <trkpt lat="45.55362" lon="6.56139">
        <ele>2065.0493164062</ele>
        <time>2011-01-15T12:54:58Z</time>
      </trkpt>
      <trkpt lat="45.55358" lon="6.5614">
        <ele>2066.0104980469</ele>
        <time>2011-01-15T12:55:13Z</time>
      </trkpt>
      <trkpt lat="45.55354" lon="6.5614">
        <ele>2066.9719238281</ele>
        <time>2011-01-15T12:55:27Z</time>
      </trkpt>
      <trkpt lat="45.55348" lon="6.56144">
        <ele>2066.9719238281</ele>
        <time>2011-01-15T12:55:46Z</time>
      </trkpt>
      <trkpt lat="45.55342" lon="6.56174">
        <ele>2066.0104980469</ele>
        <time>2011-01-15T12:56:01Z</time>
      </trkpt>
      <trkpt lat="45.5534" lon="6.56202">
        <ele>2065.5300292969</ele>
        <time>2011-01-15T12:56:16Z</time>
      </trkpt>
      <trkpt lat="45.55341" lon="6.56201">
        <ele>2067.4523925781</ele>
        <time>2011-01-15T12:56:42Z</time>
      </trkpt>
      <trkpt lat="45.55341" lon="6.56202">
        <ele>2066.9719238281</ele>
        <time>2011-01-15T12:56:45Z</time>
      </trkpt>
      <trkpt lat="45.55332" lon="6.56194">
        <ele>2065.5300292969</ele>
        <time>2011-01-15T12:56:50Z</time>
      </trkpt>
      <trkpt lat="45.55325" lon="6.56181">
        <ele>2064.087890625</ele>
        <time>2011-01-15T12:56:54Z</time>
      </trkpt>
      <trkpt lat="45.55307" lon="6.56184">
        <ele>2060.2426757812</ele>
        <time>2011-01-15T12:57:00Z</time>
      </trkpt>
      <trkpt lat="45.55304" lon="6.56177">
        <ele>2058.8005371094</ele>
        <time>2011-01-15T12:57:02Z</time>
      </trkpt>
      <trkpt lat="45.55299" lon="6.56156">
        <ele>2056.3972167969</ele>
        <time>2011-01-15T12:57:06Z</time>
      </trkpt>
      <trkpt lat="45.55281" lon="6.56154">
        <ele>2050.6293945312</ele>
        <time>2011-01-15T12:57:13Z</time>
      </trkpt>
      <trkpt lat="45.5527" lon="6.56159">
        <ele>2043.4194335938</ele>
        <time>2011-01-15T12:57:18Z</time>
      </trkpt>
      <trkpt lat="45.55263" lon="6.56168">
        <ele>2039.0935058594</ele>
        <time>2011-01-15T12:57:22Z</time>
      </trkpt>
      <trkpt lat="45.55262" lon="6.56186">
        <ele>2037.6516113281</ele>
        <time>2011-01-15T12:57:25Z</time>
      </trkpt>
      <trkpt lat="45.55253" lon="6.56188">
        <ele>2033.8063964844</ele>
        <time>2011-01-15T12:57:29Z</time>
      </trkpt>
      <trkpt lat="45.55232" lon="6.56205">
        <ele>2031.4030761719</ele>
        <time>2011-01-15T12:57:38Z</time>
      </trkpt>
      <trkpt lat="45.55212" lon="6.56204">
        <ele>2025.6350097656</ele>
        <time>2011-01-15T12:57:45Z</time>
      </trkpt>
      <trkpt lat="45.55176" lon="6.56233">
        <ele>2019.8671875</ele>
        <time>2011-01-15T12:57:51Z</time>
      </trkpt>
      <trkpt lat="45.5517" lon="6.56248">
        <ele>2016.0219726562</ele>
        <time>2011-01-15T12:57:55Z</time>
      </trkpt>
      <trkpt lat="45.55145" lon="6.56265">
        <ele>2014.0993652344</ele>
        <time>2011-01-15T12:58:02Z</time>
      </trkpt>
      <trkpt lat="45.55121" lon="6.56254">
        <ele>2012.1767578125</ele>
        <time>2011-01-15T12:58:13Z</time>
      </trkpt>
      <trkpt lat="45.55108" lon="6.56239">
        <ele>2009.7731933594</ele>
        <time>2011-01-15T12:58:21Z</time>
      </trkpt>
      <trkpt lat="45.55108" lon="6.56239">
        <ele>2008.8120117188</ele>
        <time>2011-01-15T12:58:29Z</time>
      </trkpt>
      <trkpt lat="45.55108" lon="6.56239">
        <ele>2010.7346191406</ele>
        <time>2011-01-15T12:59:24Z</time>
      </trkpt>
      <trkpt lat="45.55108" lon="6.56239">
        <ele>2009.7731933594</ele>
        <time>2011-01-15T12:59:52Z</time>
      </trkpt>
      <trkpt lat="45.55094" lon="6.56239">
        <ele>2006.8894042969</ele>
        <time>2011-01-15T13:00:00Z</time>
      </trkpt>
      <trkpt lat="45.55076" lon="6.56238">
        <ele>2002.5634765625</ele>
        <time>2011-01-15T13:00:08Z</time>
      </trkpt>
      <trkpt lat="45.55062" lon="6.56254">
        <ele>1995.8342285156</ele>
        <time>2011-01-15T13:00:14Z</time>
      </trkpt>
      <trkpt lat="45.55046" lon="6.56266">
        <ele>1987.6630859375</ele>
        <time>2011-01-15T13:00:20Z</time>
      </trkpt>
      <trkpt lat="45.55037" lon="6.56289">
        <ele>1976.6079101562</ele>
        <time>2011-01-15T13:00:26Z</time>
      </trkpt>
      <trkpt lat="45.55022" lon="6.56306">
        <ele>1967.4753417969</ele>
        <time>2011-01-15T13:00:32Z</time>
      </trkpt>
      <trkpt lat="45.55001" lon="6.56309">
        <ele>1961.7075195312</ele>
        <time>2011-01-15T13:00:40Z</time>
      </trkpt>
      <trkpt lat="45.54978" lon="6.56315">
        <ele>1956.4201660156</ele>
        <time>2011-01-15T13:00:46Z</time>
      </trkpt>
      <trkpt lat="45.54962" lon="6.56304">
        <ele>1954.9782714844</ele>
        <time>2011-01-15T13:00:51Z</time>
      </trkpt>
      <trkpt lat="45.54957" lon="6.56292">
        <ele>1954.9782714844</ele>
        <time>2011-01-15T13:01:00Z</time>
      </trkpt>
      <trkpt lat="45.54958" lon="6.56293">
        <ele>1955.939453125</ele>
        <time>2011-01-15T13:01:45Z</time>
      </trkpt>
      <trkpt lat="45.54958" lon="6.56294">
        <ele>1955.939453125</ele>
        <time>2011-01-15T13:02:21Z</time>
      </trkpt>
      <trkpt lat="45.54958" lon="6.56294">
        <ele>1955.939453125</ele>
        <time>2011-01-15T13:03:31Z</time>
      </trkpt>
      <trkpt lat="45.54957" lon="6.56291">
        <ele>1955.939453125</ele>
        <time>2011-01-15T13:04:01Z</time>
      </trkpt>
      <trkpt lat="45.54955" lon="6.5629">
        <ele>1955.458984375</ele>
        <time>2011-01-15T13:04:09Z</time>
      </trkpt>
      <trkpt lat="45.54947" lon="6.56286">
        <ele>1954.0170898438</ele>
        <time>2011-01-15T13:04:13Z</time>
      </trkpt>
      <trkpt lat="45.54928" lon="6.563">
        <ele>1949.2104492188</ele>
        <time>2011-01-15T13:04:19Z</time>
      </trkpt>
      <trkpt lat="45.54905" lon="6.56312">
        <ele>1940.0778808594</ele>
        <time>2011-01-15T13:04:25Z</time>
      </trkpt>
      <trkpt lat="45.54889" lon="6.56326">
        <ele>1931.9064941406</ele>
        <time>2011-01-15T13:04:31Z</time>
      </trkpt>
      <trkpt lat="45.54882" lon="6.56341">
        <ele>1921.33203125</ele>
        <time>2011-01-15T13:04:36Z</time>
      </trkpt>
      <trkpt lat="45.54864" lon="6.56359">
        <ele>1908.8349609375</ele>
        <time>2011-01-15T13:04:42Z</time>
      </trkpt>
      <trkpt lat="45.54845" lon="6.56366">
        <ele>1897.7797851562</ele>
        <time>2011-01-15T13:04:47Z</time>
      </trkpt>
      <trkpt lat="45.5483" lon="6.56368">
        <ele>1894.4150390625</ele>
        <time>2011-01-15T13:04:50Z</time>
      </trkpt>
      <trkpt lat="45.54823" lon="6.56363">
        <ele>1892.4926757812</ele>
        <time>2011-01-15T13:04:52Z</time>
      </trkpt>
      <trkpt lat="45.54829" lon="6.56373">
        <ele>1886.244140625</ele>
        <time>2011-01-15T13:04:59Z</time>
      </trkpt>
      <trkpt lat="45.54829" lon="6.56373">
        <ele>1886.724609375</ele>
        <time>2011-01-15T13:05:01Z</time>
      </trkpt>
      <trkpt lat="45.54831" lon="6.56382">
        <ele>1884.8022460938</ele>
        <time>2011-01-15T13:05:04Z</time>
      </trkpt>
      <trkpt lat="45.54822" lon="6.56394">
        <ele>1881.91796875</ele>
        <time>2011-01-15T13:05:08Z</time>
      </trkpt>
      <trkpt lat="45.54822" lon="6.56362">
        <ele>1869.9016113281</ele>
        <time>2011-01-15T13:05:15Z</time>
      </trkpt>
      <trkpt lat="45.54787" lon="6.56403">
        <ele>1862.6916503906</ele>
        <time>2011-01-15T13:05:20Z</time>
      </trkpt>
      <trkpt lat="45.54759" lon="6.56426">
        <ele>1855.0012207031</ele>
        <time>2011-01-15T13:05:25Z</time>
      </trkpt>
      <trkpt lat="45.54737" lon="6.56491">
        <ele>1845.8686523438</ele>
        <time>2011-01-15T13:05:33Z</time>
      </trkpt>
      <trkpt lat="45.54737" lon="6.56491">
        <ele>1845.8686523438</ele>
        <time>2011-01-15T13:05:43Z</time>
      </trkpt>
      <trkpt lat="45.5473" lon="6.56489">
        <ele>1844.9072265625</ele>
        <time>2011-01-15T13:05:46Z</time>
      </trkpt>
      <trkpt lat="45.5472" lon="6.56487">
        <ele>1839.1394042969</ele>
        <time>2011-01-15T13:05:53Z</time>
      </trkpt>
      <trkpt lat="45.54703" lon="6.56481">
        <ele>1832.41015625</ele>
        <time>2011-01-15T13:05:59Z</time>
      </trkpt>
      <trkpt lat="45.54699" lon="6.56479">
        <ele>1831.4487304688</ele>
        <time>2011-01-15T13:06:00Z</time>
      </trkpt>
      <trkpt lat="45.54687" lon="6.56475">
        <ele>1830.4875488281</ele>
        <time>2011-01-15T13:06:09Z</time>
      </trkpt>
      <trkpt lat="45.54687" lon="6.56475">
        <ele>1831.9294433594</ele>
        <time>2011-01-15T13:06:28Z</time>
      </trkpt>
      <trkpt lat="45.54687" lon="6.56475">
        <ele>1829.0454101562</ele>
        <time>2011-01-15T13:07:13Z</time>
      </trkpt>
      <trkpt lat="45.54687" lon="6.56475">
        <ele>1830.9682617188</ele>
        <time>2011-01-15T13:07:44Z</time>
      </trkpt>
      <trkpt lat="45.54687" lon="6.56475">
        <ele>1834.3327636719</ele>
        <time>2011-01-15T13:08:15Z</time>
      </trkpt>
      <trkpt lat="45.54687" lon="6.56475">
        <ele>1832.41015625</ele>
        <time>2011-01-15T13:08:39Z</time>
      </trkpt>
      <trkpt lat="45.54668" lon="6.56512">
        <ele>1826.1616210938</ele>
        <time>2011-01-15T13:08:48Z</time>
      </trkpt>
      <trkpt lat="45.54674" lon="6.56474">
        <ele>1816.0676269531</ele>
        <time>2011-01-15T13:08:54Z</time>
      </trkpt>
      <trkpt lat="45.5464" lon="6.56572">
        <ele>1805.4934082031</ele>
        <time>2011-01-15T13:09:00Z</time>
      </trkpt>
      <trkpt lat="45.54622" lon="6.56586">
        <ele>1794.9187011719</ele>
        <time>2011-01-15T13:09:06Z</time>
      </trkpt>
      <trkpt lat="45.5461" lon="6.56594">
        <ele>1791.0734863281</ele>
        <time>2011-01-15T13:09:09Z</time>
      </trkpt>
      <trkpt lat="45.54596" lon="6.5661">
        <ele>1781.4602050781</ele>
        <time>2011-01-15T13:09:17Z</time>
      </trkpt>
      <trkpt lat="45.54596" lon="6.56609">
        <ele>1782.9020996094</ele>
        <time>2011-01-15T13:09:28Z</time>
      </trkpt>
      <trkpt lat="45.54595" lon="6.56612">
        <ele>1781.9409179688</ele>
        <time>2011-01-15T13:09:30Z</time>
      </trkpt>
      <trkpt lat="45.54598" lon="6.56634">
        <ele>1778.5764160156</ele>
        <time>2011-01-15T13:09:36Z</time>
      </trkpt>
      <trkpt lat="45.54585" lon="6.56643">
        <ele>1772.3278808594</ele>
        <time>2011-01-15T13:09:43Z</time>
      </trkpt>
      <trkpt lat="45.54577" lon="6.56671">
        <ele>1767.0405273438</ele>
        <time>2011-01-15T13:09:49Z</time>
      </trkpt>
      <trkpt lat="45.54566" lon="6.56693">
        <ele>1762.2338867188</ele>
        <time>2011-01-15T13:09:54Z</time>
      </trkpt>
      <trkpt lat="45.54541" lon="6.56742">
        <ele>1753.58203125</ele>
        <time>2011-01-15T13:10:00Z</time>
      </trkpt>
      <trkpt lat="45.54554" lon="6.5674">
        <ele>1745.4108886719</ele>
        <time>2011-01-15T13:10:05Z</time>
      </trkpt>
      <trkpt lat="45.54551" lon="6.56765">
        <ele>1739.6428222656</ele>
        <time>2011-01-15T13:10:10Z</time>
      </trkpt>
      <trkpt lat="45.54552" lon="6.56765">
        <ele>1738.681640625</ele>
        <time>2011-01-15T13:10:18Z</time>
      </trkpt>
      <trkpt lat="45.54552" lon="6.56765">
        <ele>1738.681640625</ele>
        <time>2011-01-15T13:10:21Z</time>
      </trkpt>
      <trkpt lat="45.54564" lon="6.56769">
        <ele>1734.8364257812</ele>
        <time>2011-01-15T13:10:28Z</time>
      </trkpt>
      <trkpt lat="45.5453" lon="6.56835">
        <ele>1733.875</ele>
        <time>2011-01-15T13:10:34Z</time>
      </trkpt>
      <trkpt lat="45.54529" lon="6.56833">
        <ele>1730.9912109375</ele>
        <time>2011-01-15T13:10:53Z</time>
      </trkpt>
      <trkpt lat="45.54527" lon="6.56827">
        <ele>1729.5490722656</ele>
        <time>2011-01-15T13:10:55Z</time>
      </trkpt>
      <trkpt lat="45.54526" lon="6.56822">
        <ele>1726.1845703125</ele>
        <time>2011-01-15T13:11:08Z</time>
      </trkpt>
      <trkpt lat="45.54525" lon="6.5682">
        <ele>1728.1071777344</ele>
        <time>2011-01-15T13:12:44Z</time>
      </trkpt>
      <trkpt lat="45.54524" lon="6.56821">
        <ele>1727.6264648438</ele>
        <time>2011-01-15T13:12:56Z</time>
      </trkpt>
      <trkpt lat="45.54511" lon="6.56835">
        <ele>1726.6652832031</ele>
        <time>2011-01-15T13:13:04Z</time>
      </trkpt>
      <trkpt lat="45.54503" lon="6.56836">
        <ele>1724.7426757812</ele>
        <time>2011-01-15T13:13:06Z</time>
      </trkpt>
      <trkpt lat="45.54464" lon="6.56864">
        <ele>1716.5712890625</ele>
        <time>2011-01-15T13:13:14Z</time>
      </trkpt>
      <trkpt lat="45.54442" lon="6.56872">
        <ele>1713.6872558594</ele>
        <time>2011-01-15T13:13:19Z</time>
      </trkpt>
      <trkpt lat="45.5443" lon="6.56888">
        <ele>1712.7260742188</ele>
        <time>2011-01-15T13:13:27Z</time>
      </trkpt>
      <trkpt lat="45.54429" lon="6.56879">
        <ele>1712.2453613281</ele>
        <time>2011-01-15T13:13:34Z</time>
      </trkpt>
      <trkpt lat="45.54431" lon="6.56869">
        <ele>1710.3227539062</ele>
        <time>2011-01-15T13:13:44Z</time>
      </trkpt>
      <trkpt lat="45.54437" lon="6.56853">
        <ele>1705.9965820312</ele>
        <time>2011-01-15T13:13:53Z</time>
      </trkpt>
      <trkpt lat="45.54433" lon="6.56854">
        <ele>1704.5546875</ele>
        <time>2011-01-15T13:14:04Z</time>
      </trkpt>
      <trkpt lat="45.54434" lon="6.56855">
        <ele>1704.5546875</ele>
        <time>2011-01-15T13:14:11Z</time>
      </trkpt>
      <trkpt lat="45.54411" lon="6.56868">
        <ele>1697.8256835938</ele>
        <time>2011-01-15T13:14:23Z</time>
      </trkpt>
      <trkpt lat="45.54406" lon="6.56869">
        <ele>1697.3449707031</ele>
        <time>2011-01-15T13:14:25Z</time>
      </trkpt>
      <trkpt lat="45.54402" lon="6.5687">
        <ele>1694.4609375</ele>
        <time>2011-01-15T13:14:39Z</time>
      </trkpt>
      <trkpt lat="45.54399" lon="6.56876">
        <ele>1693.98046875</ele>
        <time>2011-01-15T13:14:51Z</time>
      </trkpt>
      <trkpt lat="45.54394" lon="6.56884">
        <ele>1693.4997558594</ele>
        <time>2011-01-15T13:15:06Z</time>
      </trkpt>
      <trkpt lat="45.54388" lon="6.56898">
        <ele>1690.1350097656</ele>
        <time>2011-01-15T13:15:23Z</time>
      </trkpt>
      <trkpt lat="45.54386" lon="6.56896">
        <ele>1684.8479003906</ele>
        <time>2011-01-15T13:15:42Z</time>
      </trkpt>
      <trkpt lat="45.54382" lon="6.56903">
        <ele>1682.9250488281</ele>
        <time>2011-01-15T13:16:03Z</time>
      </trkpt>
      <trkpt lat="45.54371" lon="6.5693">
        <ele>1682.9250488281</ele>
        <time>2011-01-15T13:16:16Z</time>
      </trkpt>
      <trkpt lat="45.54368" lon="6.56962">
        <ele>1682.4445800781</ele>
        <time>2011-01-15T13:16:26Z</time>
      </trkpt>
      <trkpt lat="45.54367" lon="6.56987">
        <ele>1681.4831542969</ele>
        <time>2011-01-15T13:16:39Z</time>
      </trkpt>
      <trkpt lat="45.54365" lon="6.56984">
        <ele>1681.0026855469</ele>
        <time>2011-01-15T13:17:28Z</time>
      </trkpt>
      <trkpt lat="45.54363" lon="6.5699">
        <ele>1678.1186523438</ele>
        <time>2011-01-15T13:17:47Z</time>
      </trkpt>
      <trkpt lat="45.54335" lon="6.56963">
        <ele>1673.3120117188</ele>
        <time>2011-01-15T13:17:53Z</time>
      </trkpt>
      <trkpt lat="45.54318" lon="6.56974">
        <ele>1666.1020507812</ele>
        <time>2011-01-15T13:17:58Z</time>
      </trkpt>
      <trkpt lat="45.54313" lon="6.56981">
        <ele>1660.3342285156</ele>
        <time>2011-01-15T13:18:03Z</time>
      </trkpt>
      <trkpt lat="45.54293" lon="6.5698">
        <ele>1654.0856933594</ele>
        <time>2011-01-15T13:18:09Z</time>
      </trkpt>
      <trkpt lat="45.5427" lon="6.56989">
        <ele>1646.3952636719</ele>
        <time>2011-01-15T13:18:16Z</time>
      </trkpt>
      <trkpt lat="45.54267" lon="6.56991">
        <ele>1641.1076660156</ele>
        <time>2011-01-15T13:18:22Z</time>
      </trkpt>
      <trkpt lat="45.54267" lon="6.56991">
        <ele>1640.146484375</ele>
        <time>2011-01-15T13:18:25Z</time>
      </trkpt>
      <trkpt lat="45.54259" lon="6.56958">
        <ele>1636.7817382812</ele>
        <time>2011-01-15T13:18:32Z</time>
      </trkpt>
      <trkpt lat="45.54257" lon="6.56965">
        <ele>1637.2624511719</ele>
        <time>2011-01-15T13:18:41Z</time>
      </trkpt>
      <trkpt lat="45.54255" lon="6.56968">
        <ele>1641.5883789062</ele>
        <time>2011-01-15T13:19:29Z</time>
      </trkpt>
      <trkpt lat="45.54256" lon="6.56967">
        <ele>1639.1850585938</ele>
        <time>2011-01-15T13:20:12Z</time>
      </trkpt>
      <trkpt lat="45.54254" lon="6.56965">
        <ele>1640.626953125</ele>
        <time>2011-01-15T13:21:01Z</time>
      </trkpt>
      <trkpt lat="45.54257" lon="6.56967">
        <ele>1642.5498046875</ele>
        <time>2011-01-15T13:21:32Z</time>
      </trkpt>
      <trkpt lat="45.54257" lon="6.56967">
        <ele>1638.7045898438</ele>
        <time>2011-01-15T13:22:01Z</time>
      </trkpt>
      <trkpt lat="45.54256" lon="6.56965">
        <ele>1638.7045898438</ele>
        <time>2011-01-15T13:22:43Z</time>
      </trkpt>
      <trkpt lat="45.54256" lon="6.56963">
        <ele>1639.6657714844</ele>
        <time>2011-01-15T13:23:09Z</time>
      </trkpt>
      <trkpt lat="45.54249" lon="6.56942">
        <ele>1635.33984375</ele>
        <time>2011-01-15T13:23:17Z</time>
      </trkpt>
      <trkpt lat="45.54235" lon="6.56946">
        <ele>1631.4946289062</ele>
        <time>2011-01-15T13:23:21Z</time>
      </trkpt>
      <trkpt lat="45.54146" lon="6.56959">
        <ele>1622.3620605469</ele>
        <time>2011-01-15T13:23:28Z</time>
      </trkpt>
      <trkpt lat="45.54172" lon="6.56963">
        <ele>1613.2297363281</ele>
        <time>2011-01-15T13:23:34Z</time>
      </trkpt>
      <trkpt lat="45.54162" lon="6.56954">
        <ele>1606.9809570312</ele>
        <time>2011-01-15T13:23:40Z</time>
      </trkpt>
      <trkpt lat="45.54159" lon="6.56952">
        <ele>1605.5390625</ele>
        <time>2011-01-15T13:23:41Z</time>
      </trkpt>
      <trkpt lat="45.54154" lon="6.56947">
        <ele>1603.1357421875</ele>
        <time>2011-01-15T13:23:43Z</time>
      </trkpt>
      <trkpt lat="45.54146" lon="6.56944">
        <ele>1596.8872070312</ele>
        <time>2011-01-15T13:23:50Z</time>
      </trkpt>
      <trkpt lat="45.54146" lon="6.56944">
        <ele>1596.8872070312</ele>
        <time>2011-01-15T13:24:03Z</time>
      </trkpt>
      <trkpt lat="45.54146" lon="6.56944">
        <ele>1598.8098144531</ele>
        <time>2011-01-15T13:24:34Z</time>
      </trkpt>
      <trkpt lat="45.5414" lon="6.56916">
        <ele>1597.8486328125</ele>
        <time>2011-01-15T13:24:47Z</time>
      </trkpt>
      <trkpt lat="45.54128" lon="6.56899">
        <ele>1596.4067382812</ele>
        <time>2011-01-15T13:24:54Z</time>
      </trkpt>
      <trkpt lat="45.54102" lon="6.56887">
        <ele>1591.5998535156</ele>
        <time>2011-01-15T13:25:06Z</time>
      </trkpt>
      <trkpt lat="45.54097" lon="6.56887">
        <ele>1590.1579589844</ele>
        <time>2011-01-15T13:25:08Z</time>
      </trkpt>
      <trkpt lat="45.541" lon="6.56846">
        <ele>1583.9094238281</ele>
        <time>2011-01-15T13:25:15Z</time>
      </trkpt>
      <trkpt lat="45.54071" lon="6.568">
        <ele>1579.1025390625</ele>
        <time>2011-01-15T13:25:27Z</time>
      </trkpt>
      <trkpt lat="45.54071" lon="6.568">
        <ele>1577.6606445312</ele>
        <time>2011-01-15T13:25:43Z</time>
      </trkpt>
      <trkpt lat="45.54071" lon="6.568">
        <ele>1579.1025390625</ele>
        <time>2011-01-15T13:25:56Z</time>
      </trkpt>
      <trkpt lat="45.54062" lon="6.56788">
        <ele>1577.6606445312</ele>
        <time>2011-01-15T13:26:00Z</time>
      </trkpt>
      <trkpt lat="45.54023" lon="6.56834">
        <ele>1571.8928222656</ele>
        <time>2011-01-15T13:26:07Z</time>
      </trkpt>
      <trkpt lat="45.5402" lon="6.56832">
        <ele>1571.412109375</ele>
        <time>2011-01-15T13:26:08Z</time>
      </trkpt>
      <trkpt lat="45.54004" lon="6.56819">
        <ele>1568.5283203125</ele>
        <time>2011-01-15T13:26:14Z</time>
      </trkpt>
      <trkpt lat="45.53975" lon="6.5682">
        <ele>1561.318359375</ele>
        <time>2011-01-15T13:26:21Z</time>
      </trkpt>
      <trkpt lat="45.5396" lon="6.56836">
        <ele>1554.1086425781</ele>
        <time>2011-01-15T13:26:27Z</time>
      </trkpt>
      <trkpt lat="45.53948" lon="6.56853">
        <ele>1545.4565429688</ele>
        <time>2011-01-15T13:26:33Z</time>
      </trkpt>
      <trkpt lat="45.53941" lon="6.56851">
        <ele>1543.0532226562</ele>
        <time>2011-01-15T13:26:36Z</time>
      </trkpt>
      <trkpt lat="45.53935" lon="6.56847">
        <ele>1543.5339355469</ele>
        <time>2011-01-15T13:26:50Z</time>
      </trkpt>
      <trkpt lat="45.53929" lon="6.56839">
        <ele>1543.5339355469</ele>
        <time>2011-01-15T13:26:59Z</time>
      </trkpt>
      <trkpt lat="45.53927" lon="6.56833">
        <ele>1543.5339355469</ele>
        <time>2011-01-15T13:27:04Z</time>
      </trkpt>
      <trkpt lat="45.53918" lon="6.56822">
        <ele>1542.5727539062</ele>
        <time>2011-01-15T13:27:17Z</time>
      </trkpt>
      <trkpt lat="45.53915" lon="6.5682">
        <ele>1541.611328125</ele>
        <time>2011-01-15T13:27:19Z</time>
      </trkpt>
      <trkpt lat="45.5391" lon="6.56824">
        <ele>1539.2080078125</ele>
        <time>2011-01-15T13:27:26Z</time>
      </trkpt>
      <trkpt lat="45.53895" lon="6.56814">
        <ele>1536.8046875</ele>
        <time>2011-01-15T13:27:35Z</time>
      </trkpt>
      <trkpt lat="45.53891" lon="6.56827">
        <ele>1533.9208984375</ele>
        <time>2011-01-15T13:27:43Z</time>
      </trkpt>
      <trkpt lat="45.53892" lon="6.56828">
        <ele>1536.32421875</ele>
        <time>2011-01-15T13:28:08Z</time>
      </trkpt>
      <trkpt lat="45.5389" lon="6.56825">
        <ele>1534.4016113281</ele>
        <time>2011-01-15T13:28:39Z</time>
      </trkpt>
      <trkpt lat="45.53888" lon="6.56821">
        <ele>1533.9208984375</ele>
        <time>2011-01-15T13:28:47Z</time>
      </trkpt>
      <trkpt lat="45.53877" lon="6.56806">
        <ele>1531.5173339844</ele>
        <time>2011-01-15T13:29:03Z</time>
      </trkpt>
      <trkpt lat="45.53876" lon="6.56806">
        <ele>1531.5173339844</ele>
        <time>2011-01-15T13:29:06Z</time>
      </trkpt>
      <trkpt lat="45.53872" lon="6.56808">
        <ele>1530.0754394531</ele>
        <time>2011-01-15T13:29:18Z</time>
      </trkpt>
      <trkpt lat="45.53871" lon="6.56812">
        <ele>1529.1140136719</ele>
        <time>2011-01-15T13:29:30Z</time>
      </trkpt>
      <trkpt lat="45.53866" lon="6.56809">
        <ele>1526.7109375</ele>
        <time>2011-01-15T13:29:40Z</time>
      </trkpt>
      <trkpt lat="45.53865" lon="6.56811">
        <ele>1525.7495117188</ele>
        <time>2011-01-15T13:29:45Z</time>
      </trkpt>
      <trkpt lat="45.53863" lon="6.56817">
        <ele>1522.8657226562</ele>
        <time>2011-01-15T13:29:53Z</time>
      </trkpt>
      <trkpt lat="45.53863" lon="6.56822">
        <ele>1520.9431152344</ele>
        <time>2011-01-15T13:30:05Z</time>
      </trkpt>
      <trkpt lat="45.53862" lon="6.56827">
        <ele>1518.0590820312</ele>
        <time>2011-01-15T13:30:19Z</time>
      </trkpt>
      <trkpt lat="45.53864" lon="6.56835">
        <ele>1517.0979003906</ele>
        <time>2011-01-15T13:30:31Z</time>
      </trkpt>
      <trkpt lat="45.53869" lon="6.56841">
        <ele>1515.6557617188</ele>
        <time>2011-01-15T13:30:36Z</time>
      </trkpt>
      <trkpt lat="45.53869" lon="6.56848">
        <ele>1514.6943359375</ele>
        <time>2011-01-15T13:30:48Z</time>
      </trkpt>
      <trkpt lat="45.53865" lon="6.56844">
        <ele>1514.6943359375</ele>
        <time>2011-01-15T13:31:08Z</time>
      </trkpt>
      <trkpt lat="45.53862" lon="6.56843">
        <ele>1515.1750488281</ele>
        <time>2011-01-15T13:31:20Z</time>
      </trkpt>
      <trkpt lat="45.53861" lon="6.56843">
        <ele>1514.6943359375</ele>
        <time>2011-01-15T13:31:33Z</time>
      </trkpt>
      <trkpt lat="45.5386" lon="6.56842">
        <ele>1513.2524414062</ele>
        <time>2011-01-15T13:31:47Z</time>
      </trkpt>
      <trkpt lat="45.53862" lon="6.5684">
        <ele>1512.7717285156</ele>
        <time>2011-01-15T13:32:03Z</time>
      </trkpt>
      <trkpt lat="45.53864" lon="6.56838">
        <ele>1512.7717285156</ele>
        <time>2011-01-15T13:32:10Z</time>
      </trkpt>
      <trkpt lat="45.53869" lon="6.56845">
        <ele>1510.3684082031</ele>
        <time>2011-01-15T13:32:21Z</time>
      </trkpt>
      <trkpt lat="45.53868" lon="6.56847">
        <ele>1508.9265136719</ele>
        <time>2011-01-15T13:32:45Z</time>
      </trkpt>
      <trkpt lat="45.53866" lon="6.5685">
        <ele>1510.8491210938</ele>
        <time>2011-01-15T13:32:54Z</time>
      </trkpt>
      <trkpt lat="45.53867" lon="6.56854">
        <ele>1510.3684082031</ele>
        <time>2011-01-15T13:33:06Z</time>
      </trkpt>
      <trkpt lat="45.53867" lon="6.56853">
        <ele>1509.4072265625</ele>
        <time>2011-01-15T13:33:12Z</time>
      </trkpt>
      <trkpt lat="45.53867" lon="6.56854">
        <ele>1509.4072265625</ele>
        <time>2011-01-15T13:33:22Z</time>
      </trkpt>
      <trkpt lat="45.53865" lon="6.56856">
        <ele>1507.4846191406</ele>
        <time>2011-01-15T13:33:40Z</time>
      </trkpt>
      <trkpt lat="45.53865" lon="6.56858">
        <ele>1506.5231933594</ele>
        <time>2011-01-15T13:34:31Z</time>
      </trkpt>
      <trkpt lat="45.53865" lon="6.56857">
        <ele>1507.4846191406</ele>
        <time>2011-01-15T13:34:57Z</time>
      </trkpt>
      <trkpt lat="45.53865" lon="6.56856">
        <ele>1509.4072265625</ele>
        <time>2011-01-15T13:35:28Z</time>
      </trkpt>
      <trkpt lat="45.53862" lon="6.56847">
        <ele>1512.7717285156</ele>
        <time>2011-01-15T13:36:00Z</time>
      </trkpt>
      <trkpt lat="45.53858" lon="6.56839">
        <ele>1523.3464355469</ele>
        <time>2011-01-15T13:36:31Z</time>
      </trkpt>
      <trkpt lat="45.53862" lon="6.56846">
        <ele>1510.3684082031</ele>
        <time>2011-01-15T13:37:25Z</time>
      </trkpt>
      <trkpt lat="45.53865" lon="6.56854">
        <ele>1504.6005859375</ele>
        <time>2011-01-15T13:38:09Z</time>
      </trkpt>
      <trkpt lat="45.53865" lon="6.56855">
        <ele>1504.1201171875</ele>
        <time>2011-01-15T13:38:24Z</time>
      </trkpt>
      <trkpt lat="45.53869" lon="6.56855">
        <ele>1505.0812988281</ele>
        <time>2011-01-15T13:38:44Z</time>
      </trkpt>
      <trkpt lat="45.53869" lon="6.5686">
        <ele>1507.00390625</ele>
        <time>2011-01-15T13:39:00Z</time>
      </trkpt>
      <trkpt lat="45.53889" lon="6.56887">
        <ele>1507.00390625</ele>
        <time>2011-01-15T13:39:12Z</time>
      </trkpt>
      <trkpt lat="45.53882" lon="6.56907">
        <ele>1503.6394042969</ele>
        <time>2011-01-15T13:39:20Z</time>
      </trkpt>
      <trkpt lat="45.53881" lon="6.56908">
        <ele>1502.197265625</ele>
        <time>2011-01-15T13:39:46Z</time>
      </trkpt>
      <trkpt lat="45.53876" lon="6.56907">
        <ele>1503.1586914062</ele>
        <time>2011-01-15T13:39:55Z</time>
      </trkpt>
      <trkpt lat="45.5384" lon="6.56914">
        <ele>1498.3518066406</ele>
        <time>2011-01-15T13:40:02Z</time>
      </trkpt>
      <trkpt lat="45.53847" lon="6.56939">
        <ele>1492.103515625</ele>
        <time>2011-01-15T13:40:10Z</time>
      </trkpt>
      <trkpt lat="45.53889" lon="6.5703">
        <ele>1478.6450195312</ele>
        <time>2011-01-15T13:40:23Z</time>
      </trkpt>
      <trkpt lat="45.539" lon="6.57056">
        <ele>1479.6062011719</ele>
        <time>2011-01-15T13:40:27Z</time>
      </trkpt>
      <trkpt lat="45.53923" lon="6.57096">
        <ele>1475.2802734375</ele>
        <time>2011-01-15T13:40:39Z</time>
      </trkpt>
      <trkpt lat="45.53929" lon="6.57104">
        <ele>1476.7224121094</ele>
        <time>2011-01-15T13:40:49Z</time>
      </trkpt>
      <trkpt lat="45.53938" lon="6.57118">
        <ele>1478.1643066406</ele>
        <time>2011-01-15T13:41:00Z</time>
      </trkpt>
      <trkpt lat="45.53938" lon="6.57118">
        <ele>1477.68359375</ele>
        <time>2011-01-15T13:41:05Z</time>
      </trkpt>
      <trkpt lat="45.53954" lon="6.5714">
        <ele>1481.0483398438</ele>
        <time>2011-01-15T13:41:14Z</time>
      </trkpt>
      <trkpt lat="45.5396" lon="6.57147">
        <ele>1481.0483398438</ele>
        <time>2011-01-15T13:41:25Z</time>
      </trkpt>
      <trkpt lat="45.5396" lon="6.57147">
        <ele>1488.2583007812</ele>
        <time>2011-01-15T13:41:40Z</time>
      </trkpt>
      <trkpt lat="45.5396" lon="6.57147">
        <ele>1484.8937988281</ele>
        <time>2011-01-15T13:41:52Z</time>
      </trkpt>
      <trkpt lat="45.5396" lon="6.57147">
        <ele>1484.4130859375</ele>
        <time>2011-01-15T13:42:19Z</time>
      </trkpt>
      <trkpt lat="45.5396" lon="6.57147">
        <ele>1486.3356933594</ele>
        <time>2011-01-15T13:42:49Z</time>
      </trkpt>
      <trkpt lat="45.5396" lon="6.57147">
        <ele>1485.3742675781</ele>
        <time>2011-01-15T13:43:09Z</time>
      </trkpt>
      <trkpt lat="45.5396" lon="6.57147">
        <ele>1487.296875</ele>
        <time>2011-01-15T13:43:24Z</time>
      </trkpt>
      <trkpt lat="45.5396" lon="6.57147">
        <ele>1479.6062011719</ele>
        <time>2011-01-15T13:43:38Z</time>
      </trkpt>
      <trkpt lat="45.5396" lon="6.57147">
        <ele>1478.1643066406</ele>
        <time>2011-01-15T13:43:56Z</time>
      </trkpt>
      <trkpt lat="45.5396" lon="6.57147">
        <ele>1479.6062011719</ele>
        <time>2011-01-15T13:44:25Z</time>
      </trkpt>
      <trkpt lat="45.5396" lon="6.57147">
        <ele>1480.0869140625</ele>
        <time>2011-01-15T13:44:40Z</time>
      </trkpt>
      <trkpt lat="45.5402" lon="6.57248">
        <ele>1476.7224121094</ele>
        <time>2011-01-15T13:44:46Z</time>
      </trkpt>
      <trkpt lat="45.53993" lon="6.57269">
        <ele>1472.8771972656</ele>
        <time>2011-01-15T13:44:50Z</time>
      </trkpt>
      <trkpt lat="45.5401" lon="6.5723">
        <ele>1468.0705566406</ele>
        <time>2011-01-15T13:44:54Z</time>
      </trkpt>
      <trkpt lat="45.54003" lon="6.57216">
        <ele>1461.8220214844</ele>
        <time>2011-01-15T13:45:00Z</time>
      </trkpt>
      <trkpt lat="45.54001" lon="6.5721">
        <ele>1459.4187011719</ele>
        <time>2011-01-15T13:45:02Z</time>
      </trkpt>
      <trkpt lat="45.53941" lon="6.57247">
        <ele>1456.0539550781</ele>
        <time>2011-01-15T13:45:11Z</time>
      </trkpt>
      <trkpt lat="45.53942" lon="6.57247">
        <ele>1455.0927734375</ele>
        <time>2011-01-15T13:45:13Z</time>
      </trkpt>
      <trkpt lat="45.53938" lon="6.57246">
        <ele>1452.2087402344</ele>
        <time>2011-01-15T13:45:16Z</time>
      </trkpt>
      <trkpt lat="45.53935" lon="6.57244">
        <ele>1453.1701660156</ele>
        <time>2011-01-15T13:45:30Z</time>
      </trkpt>
      <trkpt lat="45.53937" lon="6.57241">
        <ele>1454.1315917969</ele>
        <time>2011-01-15T13:45:44Z</time>
      </trkpt>
      <trkpt lat="45.53936" lon="6.57239">
        <ele>1454.1315917969</ele>
        <time>2011-01-15T13:46:05Z</time>
      </trkpt>
      <trkpt lat="45.53937" lon="6.57241">
        <ele>1449.8054199219</ele>
        <time>2011-01-15T13:46:34Z</time>
      </trkpt>
      <trkpt lat="45.53935" lon="6.57235">
        <ele>1453.6508789062</ele>
        <time>2011-01-15T13:47:20Z</time>
      </trkpt>
      <trkpt lat="45.53937" lon="6.57243">
        <ele>1453.1701660156</ele>
        <time>2011-01-15T13:47:41Z</time>
      </trkpt>
      <trkpt lat="45.5393" lon="6.57238">
        <ele>1450.7666015625</ele>
        <time>2011-01-15T13:47:55Z</time>
      </trkpt>
      <trkpt lat="45.5392" lon="6.57232">
        <ele>1445.4794921875</ele>
        <time>2011-01-15T13:48:09Z</time>
      </trkpt>
      <trkpt lat="45.53909" lon="6.57225">
        <ele>1442.595703125</ele>
        <time>2011-01-15T13:48:22Z</time>
      </trkpt>
      <trkpt lat="45.539" lon="6.57214">
        <ele>1436.8276367188</ele>
        <time>2011-01-15T13:48:35Z</time>
      </trkpt>
      <trkpt lat="45.53889" lon="6.57206">
        <ele>1432.5017089844</ele>
        <time>2011-01-15T13:48:49Z</time>
      </trkpt>
      <trkpt lat="45.53879" lon="6.57195">
        <ele>1430.0983886719</ele>
        <time>2011-01-15T13:49:05Z</time>
      </trkpt>
      <trkpt lat="45.53869" lon="6.5719">
        <ele>1430.0983886719</ele>
        <time>2011-01-15T13:49:17Z</time>
      </trkpt>
      <trkpt lat="45.5386" lon="6.57179">
        <ele>1431.5402832031</ele>
        <time>2011-01-15T13:49:33Z</time>
      </trkpt>
      <trkpt lat="45.53854" lon="6.57171">
        <ele>1432.5017089844</ele>
        <time>2011-01-15T13:50:00Z</time>
      </trkpt>
      <trkpt lat="45.53848" lon="6.57165">
        <ele>1425.7724609375</ele>
        <time>2011-01-15T13:50:12Z</time>
      </trkpt>
      <trkpt lat="45.53838" lon="6.57166">
        <ele>1415.1979980469</ele>
        <time>2011-01-15T13:50:26Z</time>
      </trkpt>
      <trkpt lat="45.53824" lon="6.57163">
        <ele>1410.3913574219</ele>
        <time>2011-01-15T13:50:40Z</time>
      </trkpt>
      <trkpt lat="45.53822" lon="6.57162">
        <ele>1410.3913574219</ele>
        <time>2011-01-15T13:50:42Z</time>
      </trkpt>
      <trkpt lat="45.53809" lon="6.57164">
        <ele>1405.1042480469</ele>
        <time>2011-01-15T13:50:59Z</time>
      </trkpt>
      <trkpt lat="45.53803" lon="6.57173">
        <ele>1400.2976074219</ele>
        <time>2011-01-15T13:51:13Z</time>
      </trkpt>
      <trkpt lat="45.53791" lon="6.57176">
        <ele>1395.9716796875</ele>
        <time>2011-01-15T13:51:27Z</time>
      </trkpt>
      <trkpt lat="45.53784" lon="6.57181">
        <ele>1389.2424316406</ele>
        <time>2011-01-15T13:51:41Z</time>
      </trkpt>
      <trkpt lat="45.53784" lon="6.57183">
        <ele>1388.28125</ele>
        <time>2011-01-15T13:51:43Z</time>
      </trkpt>
      <trkpt lat="45.53787" lon="6.57205">
        <ele>1381.5517578125</ele>
        <time>2011-01-15T13:51:59Z</time>
      </trkpt>
      <trkpt lat="45.53788" lon="6.57224">
        <ele>1379.1484375</ele>
        <time>2011-01-15T13:52:13Z</time>
      </trkpt>
      <trkpt lat="45.53784" lon="6.57244">
        <ele>1370.0158691406</ele>
        <time>2011-01-15T13:52:31Z</time>
      </trkpt>
      <trkpt lat="45.53777" lon="6.57256">
        <ele>1366.6513671875</ele>
        <time>2011-01-15T13:52:46Z</time>
      </trkpt>
      <trkpt lat="45.5377" lon="6.57256">
        <ele>1363.7673339844</ele>
        <time>2011-01-15T13:52:57Z</time>
      </trkpt>
      <trkpt lat="45.53767" lon="6.57261">
        <ele>1361.3642578125</ele>
        <time>2011-01-15T13:53:08Z</time>
      </trkpt>
      <trkpt lat="45.53767" lon="6.57261">
        <ele>1359.4416503906</ele>
        <time>2011-01-15T13:53:29Z</time>
      </trkpt>
      <trkpt lat="45.53768" lon="6.57259">
        <ele>1356.5576171875</ele>
        <time>2011-01-15T13:53:51Z</time>
      </trkpt>
      <trkpt lat="45.53768" lon="6.57259">
        <ele>1357.0383300781</ele>
        <time>2011-01-15T13:54:15Z</time>
      </trkpt>
      <trkpt lat="45.53766" lon="6.57259">
        <ele>1360.4028320312</ele>
        <time>2011-01-15T13:54:47Z</time>
      </trkpt>
      <trkpt lat="45.53766" lon="6.5726">
        <ele>1360.8835449219</ele>
        <time>2011-01-15T13:55:21Z</time>
      </trkpt>
      <trkpt lat="45.53765" lon="6.57261">
        <ele>1363.7673339844</ele>
        <time>2011-01-15T13:56:24Z</time>
      </trkpt>
      <trkpt lat="45.53763" lon="6.57263">
        <ele>1365.6901855469</ele>
        <time>2011-01-15T13:57:04Z</time>
      </trkpt>
      <trkpt lat="45.53764" lon="6.57263">
        <ele>1366.1706542969</ele>
        <time>2011-01-15T13:57:15Z</time>
      </trkpt>
      <trkpt lat="45.53763" lon="6.57262">
        <ele>1366.1706542969</ele>
        <time>2011-01-15T13:57:28Z</time>
      </trkpt>
      <trkpt lat="45.53764" lon="6.57262">
        <ele>1365.2094726562</ele>
        <time>2011-01-15T13:57:38Z</time>
      </trkpt>
      <trkpt lat="45.53765" lon="6.5727">
        <ele>1364.248046875</ele>
        <time>2011-01-15T13:57:42Z</time>
      </trkpt>
      <trkpt lat="45.5378" lon="6.57317">
        <ele>1358.4802246094</ele>
        <time>2011-01-15T13:57:58Z</time>
      </trkpt>
      <trkpt lat="45.53804" lon="6.57338">
        <ele>1355.5961914062</ele>
        <time>2011-01-15T13:58:15Z</time>
      </trkpt>
      <trkpt lat="45.53805" lon="6.57338">
        <ele>1355.5961914062</ele>
        <time>2011-01-15T13:58:31Z</time>
      </trkpt>
      <trkpt lat="45.53804" lon="6.57341">
        <ele>1354.154296875</ele>
        <time>2011-01-15T13:58:43Z</time>
      </trkpt>
      <trkpt lat="45.53804" lon="6.57343">
        <ele>1352.7121582031</ele>
        <time>2011-01-15T13:58:51Z</time>
      </trkpt>
      <trkpt lat="45.53802" lon="6.57359">
        <ele>1348.3862304688</ele>
        <time>2011-01-15T13:58:58Z</time>
      </trkpt>
      <trkpt lat="45.53803" lon="6.5738">
        <ele>1343.0991210938</ele>
        <time>2011-01-15T13:59:04Z</time>
      </trkpt>
      <trkpt lat="45.53803" lon="6.57401">
        <ele>1336.8503417969</ele>
        <time>2011-01-15T13:59:10Z</time>
      </trkpt>
      <trkpt lat="45.53806" lon="6.57422">
        <ele>1330.6020507812</ele>
        <time>2011-01-15T13:59:17Z</time>
      </trkpt>
      <trkpt lat="45.53806" lon="6.57437">
        <ele>1325.7954101562</ele>
        <time>2011-01-15T13:59:23Z</time>
      </trkpt>
      <trkpt lat="45.53807" lon="6.57444">
        <ele>1324.353515625</ele>
        <time>2011-01-15T13:59:28Z</time>
      </trkpt>
      <trkpt lat="45.53808" lon="6.5746">
        <ele>1320.02734375</ele>
        <time>2011-01-15T13:59:36Z</time>
      </trkpt>
      <trkpt lat="45.53811" lon="6.57466">
        <ele>1318.1047363281</ele>
        <time>2011-01-15T13:59:48Z</time>
      </trkpt>
      <trkpt lat="45.53813" lon="6.57469">
        <ele>1317.1435546875</ele>
        <time>2011-01-15T14:00:03Z</time>
      </trkpt>
      <trkpt lat="45.53814" lon="6.57471">
        <ele>1316.1821289062</ele>
        <time>2011-01-15T14:00:21Z</time>
      </trkpt>
      <trkpt lat="45.53815" lon="6.57473">
        <ele>1315.7016601562</ele>
        <time>2011-01-15T14:00:23Z</time>
      </trkpt>
      <trkpt lat="45.53811" lon="6.57476">
        <ele>1314.2595214844</ele>
        <time>2011-01-15T14:00:35Z</time>
      </trkpt>
      <trkpt lat="45.53811" lon="6.57476">
        <ele>1315.2209472656</ele>
        <time>2011-01-15T14:00:46Z</time>
      </trkpt>
      <trkpt lat="45.53811" lon="6.57477">
        <ele>1315.7016601562</ele>
        <time>2011-01-15T14:01:05Z</time>
      </trkpt>
      <trkpt lat="45.53811" lon="6.57476">
        <ele>1315.7016601562</ele>
        <time>2011-01-15T14:01:21Z</time>
      </trkpt>
      <trkpt lat="45.5381" lon="6.57474">
        <ele>1315.2209472656</ele>
        <time>2011-01-15T14:01:31Z</time>
      </trkpt>
      <trkpt lat="45.53781" lon="6.57472">
        <ele>1310.8950195312</ele>
        <time>2011-01-15T14:01:44Z</time>
      </trkpt>
      <trkpt lat="45.53774" lon="6.57478">
        <ele>1309.453125</ele>
        <time>2011-01-15T14:01:55Z</time>
      </trkpt>
      <trkpt lat="45.53773" lon="6.57478">
        <ele>1308.4916992188</ele>
        <time>2011-01-15T14:02:14Z</time>
      </trkpt>
      <trkpt lat="45.53773" lon="6.57477">
        <ele>1310.4143066406</ele>
        <time>2011-01-15T14:02:31Z</time>
      </trkpt>
      <trkpt lat="45.53777" lon="6.57473">
        <ele>1315.7016601562</ele>
        <time>2011-01-15T14:03:30Z</time>
      </trkpt>
      <trkpt lat="45.53778" lon="6.57473">
        <ele>1309.93359375</ele>
        <time>2011-01-15T14:03:59Z</time>
      </trkpt>
      <trkpt lat="45.53781" lon="6.57473">
        <ele>1309.93359375</ele>
        <time>2011-01-15T14:04:17Z</time>
      </trkpt>
      <trkpt lat="45.53781" lon="6.57473">
        <ele>1312.3369140625</ele>
        <time>2011-01-15T14:04:33Z</time>
      </trkpt>
      <trkpt lat="45.53786" lon="6.57474">
        <ele>1310.8950195312</ele>
        <time>2011-01-15T14:04:53Z</time>
      </trkpt>
      <trkpt lat="45.5379" lon="6.57479">
        <ele>1309.453125</ele>
        <time>2011-01-15T14:04:58Z</time>
      </trkpt>
      <trkpt lat="45.53795" lon="6.57483">
        <ele>1308.0112304688</ele>
        <time>2011-01-15T14:05:13Z</time>
      </trkpt>
      <trkpt lat="45.53798" lon="6.57507">
        <ele>1302.2429199219</ele>
        <time>2011-01-15T14:05:29Z</time>
      </trkpt>
      <trkpt lat="45.53798" lon="6.57511">
        <ele>1301.2817382812</ele>
        <time>2011-01-15T14:05:32Z</time>
      </trkpt>
      <trkpt lat="45.538" lon="6.57536">
        <ele>1295.033203125</ele>
        <time>2011-01-15T14:05:49Z</time>
      </trkpt>
      <trkpt lat="45.53797" lon="6.5756">
        <ele>1288.7846679688</ele>
        <time>2011-01-15T14:06:05Z</time>
      </trkpt>
      <trkpt lat="45.53789" lon="6.57582">
        <ele>1286.8618164062</ele>
        <time>2011-01-15T14:06:20Z</time>
      </trkpt>
      <trkpt lat="45.53788" lon="6.57586">
        <ele>1286.3813476562</ele>
        <time>2011-01-15T14:06:23Z</time>
      </trkpt>
      <trkpt lat="45.5379" lon="6.57606">
        <ele>1283.0166015625</ele>
        <time>2011-01-15T14:06:35Z</time>
      </trkpt>
      <trkpt lat="45.53796" lon="6.57638">
        <ele>1278.6909179688</ele>
        <time>2011-01-15T14:06:54Z</time>
      </trkpt>
      <trkpt lat="45.53798" lon="6.57645">
        <ele>1277.7294921875</ele>
        <time>2011-01-15T14:06:59Z</time>
      </trkpt>
      <trkpt lat="45.53801" lon="6.5765">
        <ele>1275.806640625</ele>
        <time>2011-01-15T14:07:03Z</time>
      </trkpt>
      <trkpt lat="45.53804" lon="6.57656">
        <ele>1274.8454589844</ele>
        <time>2011-01-15T14:07:07Z</time>
      </trkpt>
      <trkpt lat="45.53809" lon="6.5768">
        <ele>1271.0002441406</ele>
        <time>2011-01-15T14:07:23Z</time>
      </trkpt>
      <trkpt lat="45.53813" lon="6.57691">
        <ele>1271.0002441406</ele>
        <time>2011-01-15T14:07:36Z</time>
      </trkpt>
      <trkpt lat="45.53815" lon="6.57712">
        <ele>1263.7902832031</ele>
        <time>2011-01-15T14:07:53Z</time>
      </trkpt>
      <trkpt lat="45.53814" lon="6.57728">
        <ele>1263.3098144531</ele>
        <time>2011-01-15T14:08:05Z</time>
      </trkpt>
      <trkpt lat="45.53814" lon="6.57732">
        <ele>1263.7902832031</ele>
        <time>2011-01-15T14:08:08Z</time>
      </trkpt>
      <trkpt lat="45.53824" lon="6.5777">
        <ele>1254.1772460938</ele>
        <time>2011-01-15T14:08:28Z</time>
      </trkpt>
      <trkpt lat="45.53831" lon="6.57799">
        <ele>1245.525390625</ele>
        <time>2011-01-15T14:08:45Z</time>
      </trkpt>
      <trkpt lat="45.53833" lon="6.57808">
        <ele>1243.1218261719</ele>
        <time>2011-01-15T14:08:51Z</time>
      </trkpt>
      <trkpt lat="45.53838" lon="6.57817">
        <ele>1242.1606445312</ele>
        <time>2011-01-15T14:08:59Z</time>
      </trkpt>
      <trkpt lat="45.53835" lon="6.57838">
        <ele>1236.8732910156</ele>
        <time>2011-01-15T14:09:14Z</time>
      </trkpt>
      <trkpt lat="45.53835" lon="6.57842">
        <ele>1235.912109375</ele>
        <time>2011-01-15T14:09:17Z</time>
      </trkpt>
      <trkpt lat="45.53834" lon="6.57853">
        <ele>1233.0280761719</ele>
        <time>2011-01-15T14:09:24Z</time>
      </trkpt>
      <trkpt lat="45.53834" lon="6.57886">
        <ele>1224.3762207031</ele>
        <time>2011-01-15T14:09:44Z</time>
      </trkpt>
      <trkpt lat="45.5383" lon="6.57903">
        <ele>1220.0502929688</ele>
        <time>2011-01-15T14:09:57Z</time>
      </trkpt>
      <trkpt lat="45.53825" lon="6.57936">
        <ele>1214.7631835938</ele>
        <time>2011-01-15T14:10:18Z</time>
      </trkpt>
      <trkpt lat="45.53823" lon="6.57943">
        <ele>1211.8791503906</ele>
        <time>2011-01-15T14:10:23Z</time>
      </trkpt>
      <trkpt lat="45.53818" lon="6.57944">
        <ele>1209.9562988281</ele>
        <time>2011-01-15T14:10:36Z</time>
      </trkpt>
      <trkpt lat="45.53818" lon="6.57949">
        <ele>1208.9951171875</ele>
        <time>2011-01-15T14:11:58Z</time>
      </trkpt>
      <trkpt lat="45.53817" lon="6.57961">
        <ele>1207.0725097656</ele>
        <time>2011-01-15T14:12:06Z</time>
      </trkpt>
      <trkpt lat="45.53815" lon="6.57967">
        <ele>1205.1499023438</ele>
        <time>2011-01-15T14:12:11Z</time>
      </trkpt>
      <trkpt lat="45.53811" lon="6.57996">
        <ele>1196.017578125</ele>
        <time>2011-01-15T14:12:31Z</time>
      </trkpt>
      <trkpt lat="45.53816" lon="6.58006">
        <ele>1193.6140136719</ele>
        <time>2011-01-15T14:12:38Z</time>
      </trkpt>
      <trkpt lat="45.53818" lon="6.58011">
        <ele>1192.6528320312</ele>
        <time>2011-01-15T14:12:42Z</time>
      </trkpt>
      <trkpt lat="45.53821" lon="6.58026">
        <ele>1188.3269042969</ele>
        <time>2011-01-15T14:12:54Z</time>
      </trkpt>
      <trkpt lat="45.53824" lon="6.58048">
        <ele>1184.0009765625</ele>
        <time>2011-01-15T14:13:10Z</time>
      </trkpt>
      <trkpt lat="45.53822" lon="6.58071">
        <ele>1179.1940917969</ele>
        <time>2011-01-15T14:13:27Z</time>
      </trkpt>
      <trkpt lat="45.53822" lon="6.58074">
        <ele>1178.7136230469</ele>
        <time>2011-01-15T14:13:29Z</time>
      </trkpt>
      <trkpt lat="45.53817" lon="6.5808">
        <ele>1178.7136230469</ele>
        <time>2011-01-15T14:13:36Z</time>
      </trkpt>
      <trkpt lat="45.53815" lon="6.58104">
        <ele>1170.5424804688</ele>
        <time>2011-01-15T14:13:52Z</time>
      </trkpt>
      <trkpt lat="45.53818" lon="6.58139">
        <ele>1163.8129882812</ele>
        <time>2011-01-15T14:14:11Z</time>
      </trkpt>
      <trkpt lat="45.53817" lon="6.58164">
        <ele>1159.4873046875</ele>
        <time>2011-01-15T14:14:28Z</time>
      </trkpt>
      <trkpt lat="45.53819" lon="6.58163">
        <ele>1160.9291992188</ele>
        <time>2011-01-15T14:14:48Z</time>
      </trkpt>
      <trkpt lat="45.53819" lon="6.58161">
        <ele>1161.4099121094</ele>
        <time>2011-01-15T14:15:04Z</time>
      </trkpt>
      <trkpt lat="45.53819" lon="6.58161">
        <ele>1161.890625</ele>
        <time>2011-01-15T14:15:16Z</time>
      </trkpt>
      <trkpt lat="45.53819" lon="6.5816">
        <ele>1157.083984375</ele>
        <time>2011-01-15T14:16:36Z</time>
      </trkpt>
      <trkpt lat="45.5382" lon="6.58159">
        <ele>1165.7360839844</ele>
        <time>2011-01-15T14:20:15Z</time>
      </trkpt>
      <trkpt lat="45.53822" lon="6.58156">
        <ele>1163.8129882812</ele>
        <time>2011-01-15T14:20:41Z</time>
      </trkpt>
    </trkseg>
  </trk>
</gpx>